<?xml version="1.0" encoding="utf-8"?>
<gpx xmlns:xsi="http://www.w3.org/2001/XMLSchema-instance" xmlns:xsd="http://www.w3.org/2001/XMLSchema" version="1.1" creator="Shapelink.com" xmlns="http://www.topografix.com/GPX/1/1" xmlns:gpxtpx="http://www.garmin.com/xmlschemas/TrackPointExtension/v1">
  <metadata>
    <name>Löpning 12.01 km, 2012-02-21</name>
    <desc></desc>
    <author><name>Dennis Rehn</name></author> 
    <time>2012-02-21T18:19:08Z</time>
  </metadata>
  <trk>
    <name>Löpning 12.01 km, 2012-02-21</name>
    <trkseg>
      <trkpt lat="60.0159783723" lon="23.5435815385">
        <ele>74</ele>
        <time>2012-02-21T18:19:08Z</time>
      </trkpt>
      <trkpt lat="60.0161141591" lon="23.5435527048">
        <ele>73</ele>
        <time>2012-02-21T18:19:13Z</time>
      </trkpt>
      <trkpt lat="60.0162366186" lon="23.5435136451">
        <ele>72.4</ele>
        <time>2012-02-21T18:19:18Z</time>
      </trkpt>
      <trkpt lat="60.0163812902" lon="23.5434448297">
        <ele>71.8</ele>
        <time>2012-02-21T18:19:24Z</time>
      </trkpt>
      <trkpt lat="60.0167531113" lon="23.5431956358">
        <ele>70.2</ele>
        <time>2012-02-21T18:19:35Z</time>
      </trkpt>
      <trkpt lat="60.0169650057" lon="23.5430306801">
        <ele>69.8</ele>
        <time>2012-02-21T18:19:40Z</time>
      </trkpt>
      <trkpt lat="60.0171495752" lon="23.5429240623">
        <ele>69.6</ele>
        <time>2012-02-21T18:19:45Z</time>
      </trkpt>
      <trkpt lat="60.0173477233" lon="23.5428386507">
        <ele>69.6</ele>
        <time>2012-02-21T18:19:51Z</time>
      </trkpt>
      <trkpt lat="60.0175316222" lon="23.542756089">
        <ele>69.4</ele>
        <time>2012-02-21T18:19:57Z</time>
      </trkpt>
      <trkpt lat="60.0176939796" lon="23.5426824959">
        <ele>69.4</ele>
        <time>2012-02-21T18:20:02Z</time>
      </trkpt>
      <trkpt lat="60.0178762021" lon="23.5426133453">
        <ele>69.4</ele>
        <time>2012-02-21T18:20:08Z</time>
      </trkpt>
      <trkpt lat="60.0180262381" lon="23.542533801">
        <ele>69.4</ele>
        <time>2012-02-21T18:20:13Z</time>
      </trkpt>
      <trkpt lat="60.0182019227" lon="23.5424107547">
        <ele>69.4</ele>
        <time>2012-02-21T18:20:19Z</time>
      </trkpt>
      <trkpt lat="60.0183723267" lon="23.5422224134">
        <ele>69.4</ele>
        <time>2012-02-21T18:20:25Z</time>
      </trkpt>
      <trkpt lat="60.018518088" lon="23.54198596">
        <ele>69.4</ele>
        <time>2012-02-21T18:20:31Z</time>
      </trkpt>
      <trkpt lat="60.0186372786" lon="23.5417345869">
        <ele>69.4</ele>
        <time>2012-02-21T18:20:37Z</time>
      </trkpt>
      <trkpt lat="60.01881816" lon="23.5411864944">
        <ele>69.4</ele>
        <time>2012-02-21T18:20:48Z</time>
      </trkpt>
      <trkpt lat="60.0189295554" lon="23.5408823991">
        <ele>69.4</ele>
        <time>2012-02-21T18:20:54Z</time>
      </trkpt>
      <trkpt lat="60.0190458124" lon="23.5406136754">
        <ele>69.6</ele>
        <time>2012-02-21T18:21:00Z</time>
      </trkpt>
      <trkpt lat="60.0191561182" lon="23.5404097437">
        <ele>70.4</ele>
        <time>2012-02-21T18:21:05Z</time>
      </trkpt>
      <trkpt lat="60.0192843613" lon="23.5401654952">
        <ele>70.8</ele>
        <time>2012-02-21T18:21:11Z</time>
      </trkpt>
      <trkpt lat="60.0194071561" lon="23.5400055685">
        <ele>71.2</ele>
        <time>2012-02-21T18:21:16Z</time>
      </trkpt>
      <trkpt lat="60.0195412665" lon="23.539808091">
        <ele>72.2</ele>
        <time>2012-02-21T18:21:22Z</time>
      </trkpt>
      <trkpt lat="60.0196414302" lon="23.5396220966">
        <ele>72.8</ele>
        <time>2012-02-21T18:21:27Z</time>
      </trkpt>
      <trkpt lat="60.0197919691" lon="23.5394110404">
        <ele>73.2</ele>
        <time>2012-02-21T18:21:33Z</time>
      </trkpt>
      <trkpt lat="60.0198997604" lon="23.5392676261">
        <ele>73.2</ele>
        <time>2012-02-21T18:21:37Z</time>
      </trkpt>
      <trkpt lat="60.0200270814" lon="23.5391039275">
        <ele>73.4</ele>
        <time>2012-02-21T18:21:42Z</time>
      </trkpt>
      <trkpt lat="60.0201108166" lon="23.539015247">
        <ele>73.4</ele>
        <time>2012-02-21T18:21:45Z</time>
      </trkpt>
      <trkpt lat="60.0202730064" lon="23.5388313482">
        <ele>74</ele>
        <time>2012-02-21T18:21:51Z</time>
      </trkpt>
      <trkpt lat="60.0204529658" lon="23.538713331">
        <ele>74.8</ele>
        <time>2012-02-21T18:21:57Z</time>
      </trkpt>
      <trkpt lat="60.0206041752" lon="23.5385918773">
        <ele>75.2</ele>
        <time>2012-02-21T18:22:03Z</time>
      </trkpt>
      <trkpt lat="60.0206970467" lon="23.5384747821">
        <ele>75.4</ele>
        <time>2012-02-21T18:22:07Z</time>
      </trkpt>
      <trkpt lat="60.0208289778" lon="23.5383185435">
        <ele>75.4</ele>
        <time>2012-02-21T18:22:12Z</time>
      </trkpt>
      <trkpt lat="60.0209918381" lon="23.538163646">
        <ele>75.6</ele>
        <time>2012-02-21T18:22:18Z</time>
      </trkpt>
      <trkpt lat="60.0210660179" lon="23.5381111753">
        <ele>75.6</ele>
        <time>2012-02-21T18:22:22Z</time>
      </trkpt>
      <trkpt lat="60.0210589771" lon="23.5381167912">
        <ele>75.6</ele>
        <time>2012-02-21T18:22:27Z</time>
      </trkpt>
      <trkpt lat="60.0211002999" lon="23.5380984348">
        <ele>75.6</ele>
        <time>2012-02-21T18:22:41Z</time>
      </trkpt>
      <trkpt lat="60.021153525" lon="23.5380084132">
        <ele>75.6</ele>
        <time>2012-02-21T18:22:50Z</time>
      </trkpt>
      <trkpt lat="60.0211870526" lon="23.5379781546">
        <ele>75.6</ele>
        <time>2012-02-21T18:22:55Z</time>
      </trkpt>
      <trkpt lat="60.0212599751" lon="23.5379416095">
        <ele>75</ele>
        <time>2012-02-21T18:23:01Z</time>
      </trkpt>
      <trkpt lat="60.0213380106" lon="23.5378783261">
        <ele>72.8</ele>
        <time>2012-02-21T18:23:10Z</time>
      </trkpt>
      <trkpt lat="60.0213753939" lon="23.537856617">
        <ele>70.4</ele>
        <time>2012-02-21T18:23:16Z</time>
      </trkpt>
      <trkpt lat="60.0214118551" lon="23.5378727941">
        <ele>67.2</ele>
        <time>2012-02-21T18:23:25Z</time>
      </trkpt>
      <trkpt lat="60.0214759767" lon="23.5377725465">
        <ele>64.6</ele>
        <time>2012-02-21T18:23:34Z</time>
      </trkpt>
      <trkpt lat="60.0214992784" lon="23.5377390189">
        <ele>63.8</ele>
        <time>2012-02-21T18:23:38Z</time>
      </trkpt>
      <trkpt lat="60.0215232506" lon="23.5376511766">
        <ele>61.8</ele>
        <time>2012-02-21T18:23:47Z</time>
      </trkpt>
      <trkpt lat="60.021542948" lon="23.5375950179">
        <ele>60.6</ele>
        <time>2012-02-21T18:23:56Z</time>
      </trkpt>
      <trkpt lat="60.0215543474" lon="23.5375399488">
        <ele>59.4</ele>
        <time>2012-02-21T18:24:03Z</time>
      </trkpt>
      <trkpt lat="60.0215613044" lon="23.5374625839">
        <ele>58.8</ele>
        <time>2012-02-21T18:24:09Z</time>
      </trkpt>
      <trkpt lat="60.0215717818" lon="23.5374343369">
        <ele>58.6</ele>
        <time>2012-02-21T18:24:15Z</time>
      </trkpt>
      <trkpt lat="60.0215704407" lon="23.537390751">
        <ele>58.4</ele>
        <time>2012-02-21T18:24:31Z</time>
      </trkpt>
      <trkpt lat="60.0215811695" lon="23.5373218518">
        <ele>58</ele>
        <time>2012-02-21T18:24:48Z</time>
      </trkpt>
      <trkpt lat="60.0215755536" lon="23.5373573072">
        <ele>57.2</ele>
        <time>2012-02-21T18:24:54Z</time>
      </trkpt>
      <trkpt lat="60.0215689319" lon="23.5373744901">
        <ele>56.6</ele>
        <time>2012-02-21T18:25:00Z</time>
      </trkpt>
      <trkpt lat="60.0215536769" lon="23.5374359294">
        <ele>55.8</ele>
        <time>2012-02-21T18:25:14Z</time>
      </trkpt>
      <trkpt lat="60.0215431157" lon="23.5374738156">
        <ele>54.6</ele>
        <time>2012-02-21T18:25:23Z</time>
      </trkpt>
      <trkpt lat="60.0215397629" lon="23.5375210895">
        <ele>54.4</ele>
        <time>2012-02-21T18:25:29Z</time>
      </trkpt>
      <trkpt lat="60.0215329736" lon="23.5376156374">
        <ele>54.2</ele>
        <time>2012-02-21T18:25:37Z</time>
      </trkpt>
      <trkpt lat="60.0215176347" lon="23.5378084211">
        <ele>54.2</ele>
        <time>2012-02-21T18:25:42Z</time>
      </trkpt>
      <trkpt lat="60.021487879" lon="23.537827448">
        <ele>54</ele>
        <time>2012-02-21T18:25:46Z</time>
      </trkpt>
      <trkpt lat="60.0214901421" lon="23.5378136179">
        <ele>54</ele>
        <time>2012-02-21T18:25:47Z</time>
      </trkpt>
      <trkpt lat="60.0215115997" lon="23.5377668469">
        <ele>54</ele>
        <time>2012-02-21T18:25:59Z</time>
      </trkpt>
      <trkpt lat="60.0215178023" lon="23.5377880531">
        <ele>54</ele>
        <time>2012-02-21T18:26:02Z</time>
      </trkpt>
      <trkpt lat="60.0214601349" lon="23.5378799187">
        <ele>54</ele>
        <time>2012-02-21T18:26:07Z</time>
      </trkpt>
      <trkpt lat="60.0214318041" lon="23.5379096744">
        <ele>54</ele>
        <time>2012-02-21T18:26:10Z</time>
      </trkpt>
      <trkpt lat="60.0214339833" lon="23.5379089201">
        <ele>54</ele>
        <time>2012-02-21T18:26:27Z</time>
      </trkpt>
      <trkpt lat="60.0214345701" lon="23.5379255162">
        <ele>54</ele>
        <time>2012-02-21T18:26:35Z</time>
      </trkpt>
      <trkpt lat="60.0214330613" lon="23.5379221635">
        <ele>54</ele>
        <time>2012-02-21T18:26:36Z</time>
      </trkpt>
      <trkpt lat="60.0214847777" lon="23.5377285416">
        <ele>54</ele>
        <time>2012-02-21T18:26:42Z</time>
      </trkpt>
      <trkpt lat="60.0215461332" lon="23.5375114504">
        <ele>54</ele>
        <time>2012-02-21T18:26:46Z</time>
      </trkpt>
      <trkpt lat="60.0216368253" lon="23.5371547167">
        <ele>54</ele>
        <time>2012-02-21T18:26:52Z</time>
      </trkpt>
      <trkpt lat="60.0217143579" lon="23.5368610987">
        <ele>54</ele>
        <time>2012-02-21T18:26:57Z</time>
      </trkpt>
      <trkpt lat="60.0217852688" lon="23.5366376373">
        <ele>54</ele>
        <time>2012-02-21T18:27:01Z</time>
      </trkpt>
      <trkpt lat="60.0218420981" lon="23.5363244057">
        <ele>54</ele>
        <time>2012-02-21T18:27:06Z</time>
      </trkpt>
      <trkpt lat="60.0219095724" lon="23.5359695999">
        <ele>54</ele>
        <time>2012-02-21T18:27:12Z</time>
      </trkpt>
      <trkpt lat="60.0219348857" lon="23.5357233396">
        <ele>54</ele>
        <time>2012-02-21T18:27:16Z</time>
      </trkpt>
      <trkpt lat="60.0219293536" lon="23.5353231877">
        <ele>54.4</ele>
        <time>2012-02-21T18:27:22Z</time>
      </trkpt>
      <trkpt lat="60.0219098238" lon="23.5349605867">
        <ele>55.2</ele>
        <time>2012-02-21T18:27:28Z</time>
      </trkpt>
      <trkpt lat="60.0219007714" lon="23.534787249">
        <ele>55.4</ele>
        <time>2012-02-21T18:27:31Z</time>
      </trkpt>
      <trkpt lat="60.0218943173" lon="23.5346713274">
        <ele>55.6</ele>
        <time>2012-02-21T18:27:33Z</time>
      </trkpt>
      <trkpt lat="60.0218819121" lon="23.5342842512">
        <ele>55.8</ele>
        <time>2012-02-21T18:27:39Z</time>
      </trkpt>
      <trkpt lat="60.0218813254" lon="23.5339333011">
        <ele>55.8</ele>
        <time>2012-02-21T18:27:44Z</time>
      </trkpt>
      <trkpt lat="60.0218988435" lon="23.5335914034">
        <ele>56</ele>
        <time>2012-02-21T18:27:49Z</time>
      </trkpt>
      <trkpt lat="60.0219072254" lon="23.5333490826">
        <ele>56</ele>
        <time>2012-02-21T18:27:53Z</time>
      </trkpt>
      <trkpt lat="60.0219399987" lon="23.5329938577">
        <ele>56</ele>
        <time>2012-02-21T18:27:59Z</time>
      </trkpt>
      <trkpt lat="60.0219743644" lon="23.5326350286">
        <ele>56</ele>
        <time>2012-02-21T18:28:05Z</time>
      </trkpt>
      <trkpt lat="60.0220133403" lon="23.5323322744">
        <ele>56</ele>
        <time>2012-02-21T18:28:10Z</time>
      </trkpt>
      <trkpt lat="60.022065811" lon="23.5320004349">
        <ele>56</ele>
        <time>2012-02-21T18:28:15Z</time>
      </trkpt>
      <trkpt lat="60.0221122467" lon="23.5317307054">
        <ele>56</ele>
        <time>2012-02-21T18:28:19Z</time>
      </trkpt>
      <trkpt lat="60.0221360513" lon="23.5316147837">
        <ele>56</ele>
        <time>2012-02-21T18:28:21Z</time>
      </trkpt>
      <trkpt lat="60.0221868456" lon="23.5313162204">
        <ele>56</ele>
        <time>2012-02-21T18:28:26Z</time>
      </trkpt>
      <trkpt lat="60.0221862589" lon="23.5312526018">
        <ele>56</ele>
        <time>2012-02-21T18:28:27Z</time>
      </trkpt>
      <trkpt lat="60.0221440979" lon="23.5309680363">
        <ele>56</ele>
        <time>2012-02-21T18:28:32Z</time>
      </trkpt>
      <trkpt lat="60.0220476222" lon="23.5306635219">
        <ele>56</ele>
        <time>2012-02-21T18:28:38Z</time>
      </trkpt>
      <trkpt lat="60.0219757055" lon="23.5303808004">
        <ele>55.8</ele>
        <time>2012-02-21T18:28:43Z</time>
      </trkpt>
      <trkpt lat="60.0219313653" lon="23.530019289">
        <ele>54.8</ele>
        <time>2012-02-21T18:28:49Z</time>
      </trkpt>
      <trkpt lat="60.0219315329" lon="23.5296162873">
        <ele>54</ele>
        <time>2012-02-21T18:28:55Z</time>
      </trkpt>
      <trkpt lat="60.0219876917" lon="23.5292458911">
        <ele>53</ele>
        <time>2012-02-21T18:29:01Z</time>
      </trkpt>
      <trkpt lat="60.0220368934" lon="23.5289353417">
        <ele>51.6</ele>
        <time>2012-02-21T18:29:07Z</time>
      </trkpt>
      <trkpt lat="60.0220694152" lon="23.5287972918">
        <ele>49.8</ele>
        <time>2012-02-21T18:29:14Z</time>
      </trkpt>
      <trkpt lat="60.0220730194" lon="23.5287842161">
        <ele>49.6</ele>
        <time>2012-02-21T18:29:15Z</time>
      </trkpt>
      <trkpt lat="60.0220739414" lon="23.5287802766">
        <ele>48.2</ele>
        <time>2012-02-21T18:29:19Z</time>
      </trkpt>
      <trkpt lat="60.0220405815" lon="23.5290338291">
        <ele>46.4</ele>
        <time>2012-02-21T18:29:24Z</time>
      </trkpt>
      <trkpt lat="60.022003282" lon="23.5292949253">
        <ele>45</ele>
        <time>2012-02-21T18:29:28Z</time>
      </trkpt>
      <trkpt lat="60.021963468" lon="23.5296133536">
        <ele>43.4</ele>
        <time>2012-02-21T18:29:33Z</time>
      </trkpt>
      <trkpt lat="60.0219469556" lon="23.529903535">
        <ele>41.8</ele>
        <time>2012-02-21T18:29:38Z</time>
      </trkpt>
      <trkpt lat="60.0219578521" lon="23.5302427505">
        <ele>40.6</ele>
        <time>2012-02-21T18:29:44Z</time>
      </trkpt>
      <trkpt lat="60.0220000969" lon="23.5304429103">
        <ele>40</ele>
        <time>2012-02-21T18:29:48Z</time>
      </trkpt>
      <trkpt lat="60.0221044515" lon="23.5307692176">
        <ele>39.6</ele>
        <time>2012-02-21T18:29:54Z</time>
      </trkpt>
      <trkpt lat="60.0221904498" lon="23.5311192458">
        <ele>39.4</ele>
        <time>2012-02-21T18:30:00Z</time>
      </trkpt>
      <trkpt lat="60.0221967362" lon="23.5311847922">
        <ele>39.4</ele>
        <time>2012-02-21T18:30:01Z</time>
      </trkpt>
      <trkpt lat="60.0221870971" lon="23.5314479001">
        <ele>39.2</ele>
        <time>2012-02-21T18:30:05Z</time>
      </trkpt>
      <trkpt lat="60.0221341235" lon="23.5317996046">
        <ele>39.2</ele>
        <time>2012-02-21T18:30:11Z</time>
      </trkpt>
      <trkpt lat="60.0220988357" lon="23.5320339625">
        <ele>39.2</ele>
        <time>2012-02-21T18:30:15Z</time>
      </trkpt>
      <trkpt lat="60.0220578482" lon="23.5323000879">
        <ele>39</ele>
        <time>2012-02-21T18:30:20Z</time>
      </trkpt>
      <trkpt lat="60.0220248235" lon="23.5325403969">
        <ele>39</ele>
        <time>2012-02-21T18:30:24Z</time>
      </trkpt>
      <trkpt lat="60.0219903739" lon="23.532890006">
        <ele>39</ele>
        <time>2012-02-21T18:30:30Z</time>
      </trkpt>
      <trkpt lat="60.0219711793" lon="23.5331997172">
        <ele>39</ele>
        <time>2012-02-21T18:30:35Z</time>
      </trkpt>
      <trkpt lat="60.0219561757" lon="23.5334604781">
        <ele>39</ele>
        <time>2012-02-21T18:30:39Z</time>
      </trkpt>
      <trkpt lat="60.0219409207" lon="23.5337726201">
        <ele>39</ele>
        <time>2012-02-21T18:30:44Z</time>
      </trkpt>
      <trkpt lat="60.0219288507" lon="23.5341320359">
        <ele>40</ele>
        <time>2012-02-21T18:30:50Z</time>
      </trkpt>
      <trkpt lat="60.021921307" lon="23.5344440941">
        <ele>40.4</ele>
        <time>2012-02-21T18:30:55Z</time>
      </trkpt>
      <trkpt lat="60.0219348019" lon="23.5347819684">
        <ele>41.2</ele>
        <time>2012-02-21T18:31:00Z</time>
      </trkpt>
      <trkpt lat="60.0219557566" lon="23.5350559728">
        <ele>41.8</ele>
        <time>2012-02-21T18:31:04Z</time>
      </trkpt>
      <trkpt lat="60.0219607858" lon="23.5354572981">
        <ele>42.8</ele>
        <time>2012-02-21T18:31:10Z</time>
      </trkpt>
      <trkpt lat="60.0219466204" lon="23.5357965974">
        <ele>43.8</ele>
        <time>2012-02-21T18:31:15Z</time>
      </trkpt>
      <trkpt lat="60.0219010228" lon="23.5361069792">
        <ele>44.4</ele>
        <time>2012-02-21T18:31:20Z</time>
      </trkpt>
      <trkpt lat="60.0218447803" lon="23.5364375613">
        <ele>45</ele>
        <time>2012-02-21T18:31:25Z</time>
      </trkpt>
      <trkpt lat="60.0217697623" lon="23.5367516311">
        <ele>46</ele>
        <time>2012-02-21T18:31:30Z</time>
      </trkpt>
      <trkpt lat="60.0216796568" lon="23.5371367794">
        <ele>47.2</ele>
        <time>2012-02-21T18:31:37Z</time>
      </trkpt>
      <trkpt lat="60.0215801637" lon="23.5374786771">
        <ele>48.2</ele>
        <time>2012-02-21T18:31:43Z</time>
      </trkpt>
      <trkpt lat="60.0215254299" lon="23.5376886437">
        <ele>48.6</ele>
        <time>2012-02-21T18:31:47Z</time>
      </trkpt>
      <trkpt lat="60.0213991985" lon="23.5379639891">
        <ele>49</ele>
        <time>2012-02-21T18:31:53Z</time>
      </trkpt>
      <trkpt lat="60.0213523436" lon="23.5380200641">
        <ele>49.2</ele>
        <time>2012-02-21T18:31:55Z</time>
      </trkpt>
      <trkpt lat="60.0212152158" lon="23.5381620534">
        <ele>49.2</ele>
        <time>2012-02-21T18:32:00Z</time>
      </trkpt>
      <trkpt lat="60.0211214223" lon="23.5382806573">
        <ele>49.4</ele>
        <time>2012-02-21T18:32:03Z</time>
      </trkpt>
      <trkpt lat="60.021107676" lon="23.5383040428">
        <ele>49.4</ele>
        <time>2012-02-21T18:32:07Z</time>
      </trkpt>
      <trkpt lat="60.0211738092" lon="23.5382080701">
        <ele>49.4</ele>
        <time>2012-02-21T18:32:14Z</time>
      </trkpt>
      <trkpt lat="60.0212677703" lon="23.5380894662">
        <ele>49.4</ele>
        <time>2012-02-21T18:32:22Z</time>
      </trkpt>
      <trkpt lat="60.0213652518" lon="23.5379790766">
        <ele>49.4</ele>
        <time>2012-02-21T18:32:27Z</time>
      </trkpt>
      <trkpt lat="60.0214724563" lon="23.5378264422">
        <ele>49</ele>
        <time>2012-02-21T18:32:33Z</time>
      </trkpt>
      <trkpt lat="60.0215449597" lon="23.5375127915">
        <ele>48</ele>
        <time>2012-02-21T18:32:41Z</time>
      </trkpt>
      <trkpt lat="60.021553174" lon="23.5374790962">
        <ele>48</ele>
        <time>2012-02-21T18:32:42Z</time>
      </trkpt>
      <trkpt lat="60.0215566944" lon="23.537459734">
        <ele>48</ele>
        <time>2012-02-21T18:32:43Z</time>
      </trkpt>
      <trkpt lat="60.0215825106" lon="23.5373620011">
        <ele>47.8</ele>
        <time>2012-02-21T18:32:46Z</time>
      </trkpt>
      <trkpt lat="60.0216285272" lon="23.5371599973">
        <ele>46.8</ele>
        <time>2012-02-21T18:32:51Z</time>
      </trkpt>
      <trkpt lat="60.0216827581" lon="23.5369037626">
        <ele>46.2</ele>
        <time>2012-02-21T18:32:56Z</time>
      </trkpt>
      <trkpt lat="60.0217459577" lon="23.5366063728">
        <ele>45.8</ele>
        <time>2012-02-21T18:33:02Z</time>
      </trkpt>
      <trkpt lat="60.0218028708" lon="23.536410404">
        <ele>45.6</ele>
        <time>2012-02-21T18:33:06Z</time>
      </trkpt>
      <trkpt lat="60.0218674114" lon="23.5360995193">
        <ele>45.4</ele>
        <time>2012-02-21T18:33:12Z</time>
      </trkpt>
      <trkpt lat="60.0219012743" lon="23.5358965935">
        <ele>45.4</ele>
        <time>2012-02-21T18:33:16Z</time>
      </trkpt>
      <trkpt lat="60.021922229" lon="23.5356822683">
        <ele>46</ele>
        <time>2012-02-21T18:33:20Z</time>
      </trkpt>
      <trkpt lat="60.0219054652" lon="23.5353461541">
        <ele>46.6</ele>
        <time>2012-02-21T18:33:26Z</time>
      </trkpt>
      <trkpt lat="60.0218907131" lon="23.5349693877">
        <ele>47</ele>
        <time>2012-02-21T18:33:33Z</time>
      </trkpt>
      <trkpt lat="60.0218845105" lon="23.5346295855">
        <ele>48.2</ele>
        <time>2012-02-21T18:33:39Z</time>
      </trkpt>
      <trkpt lat="60.021882415" lon="23.5343135879">
        <ele>48.8</ele>
        <time>2012-02-21T18:33:45Z</time>
      </trkpt>
      <trkpt lat="60.0218855163" lon="23.533952328">
        <ele>49.4</ele>
        <time>2012-02-21T18:33:52Z</time>
      </trkpt>
      <trkpt lat="60.0219006875" lon="23.5337093367">
        <ele>50.2</ele>
        <time>2012-02-21T18:33:57Z</time>
      </trkpt>
      <trkpt lat="60.0219301918" lon="23.5335265275">
        <ele>50.6</ele>
        <time>2012-02-21T18:34:01Z</time>
      </trkpt>
      <trkpt lat="60.021969" lon="23.5332232703">
        <ele>51</ele>
        <time>2012-02-21T18:34:07Z</time>
      </trkpt>
      <trkpt lat="60.0219950677" lon="23.5329391239">
        <ele>51.2</ele>
        <time>2012-02-21T18:34:12Z</time>
      </trkpt>
      <trkpt lat="60.0220114963" lon="23.5326550613">
        <ele>51.4</ele>
        <time>2012-02-21T18:34:17Z</time>
      </trkpt>
      <trkpt lat="60.0220496339" lon="23.532249545">
        <ele>51.4</ele>
        <time>2012-02-21T18:34:24Z</time>
      </trkpt>
      <trkpt lat="60.0221070499" lon="23.5319019476">
        <ele>51.6</ele>
        <time>2012-02-21T18:34:30Z</time>
      </trkpt>
      <trkpt lat="60.0221745242" lon="23.5315515842">
        <ele>51.6</ele>
        <time>2012-02-21T18:34:36Z</time>
      </trkpt>
      <trkpt lat="60.0221944731" lon="23.5312588882">
        <ele>50.8</ele>
        <time>2012-02-21T18:34:41Z</time>
      </trkpt>
      <trkpt lat="60.0221549106" lon="23.5309349278">
        <ele>50.2</ele>
        <time>2012-02-21T18:34:47Z</time>
      </trkpt>
      <trkpt lat="60.0220710916" lon="23.5306543018">
        <ele>50</ele>
        <time>2012-02-21T18:34:53Z</time>
      </trkpt>
      <trkpt lat="60.02200697" lon="23.5303425789">
        <ele>48.8</ele>
        <time>2012-02-21T18:34:59Z</time>
      </trkpt>
      <trkpt lat="60.0219767952" lon="23.5301213806">
        <ele>48.4</ele>
        <time>2012-02-21T18:35:03Z</time>
      </trkpt>
      <trkpt lat="60.0219524877" lon="23.5298427662">
        <ele>47.8</ele>
        <time>2012-02-21T18:35:08Z</time>
      </trkpt>
      <trkpt lat="60.0219661502" lon="23.5294924866">
        <ele>46.6</ele>
        <time>2012-02-21T18:35:14Z</time>
      </trkpt>
      <trkpt lat="60.0219870211" lon="23.5292259422">
        <ele>46</ele>
        <time>2012-02-21T18:35:19Z</time>
      </trkpt>
      <trkpt lat="60.0220244882" lon="23.5289721383">
        <ele>45.8</ele>
        <time>2012-02-21T18:35:24Z</time>
      </trkpt>
      <trkpt lat="60.0220390727" lon="23.5289033229">
        <ele>45.4</ele>
        <time>2012-02-21T18:35:26Z</time>
      </trkpt>
      <trkpt lat="60.022054663" lon="23.5288517742">
        <ele>44.6</ele>
        <time>2012-02-21T18:35:30Z</time>
      </trkpt>
      <trkpt lat="60.0220800602" lon="23.5288033268">
        <ele>44</ele>
        <time>2012-02-21T18:35:33Z</time>
      </trkpt>
      <trkpt lat="60.0220715107" lon="23.5288211803">
        <ele>40</ele>
        <time>2012-02-21T18:35:49Z</time>
      </trkpt>
      <trkpt lat="60.0220323672" lon="23.52907599">
        <ele>38.8</ele>
        <time>2012-02-21T18:35:54Z</time>
      </trkpt>
      <trkpt lat="60.0219816567" lon="23.529374218">
        <ele>37.6</ele>
        <time>2012-02-21T18:35:59Z</time>
      </trkpt>
      <trkpt lat="60.0219457822" lon="23.5297351426">
        <ele>36.4</ele>
        <time>2012-02-21T18:36:05Z</time>
      </trkpt>
      <trkpt lat="60.0219345504" lon="23.5301018508">
        <ele>35.6</ele>
        <time>2012-02-21T18:36:11Z</time>
      </trkpt>
      <trkpt lat="60.021957433" lon="23.5303700716">
        <ele>35.2</ele>
        <time>2012-02-21T18:36:16Z</time>
      </trkpt>
      <trkpt lat="60.0220153519" lon="23.5305806249">
        <ele>35</ele>
        <time>2012-02-21T18:36:20Z</time>
      </trkpt>
      <trkpt lat="60.0221143422" lon="23.5308272204">
        <ele>35</ele>
        <time>2012-02-21T18:36:25Z</time>
      </trkpt>
      <trkpt lat="60.0221620352" lon="23.5311100257">
        <ele>34.8</ele>
        <time>2012-02-21T18:36:30Z</time>
      </trkpt>
      <trkpt lat="60.0221671481" lon="23.5313991174">
        <ele>34.8</ele>
        <time>2012-02-21T18:36:34Z</time>
      </trkpt>
      <trkpt lat="60.0221362189" lon="23.5317370756">
        <ele>35.8</ele>
        <time>2012-02-21T18:36:40Z</time>
      </trkpt>
      <trkpt lat="60.0221060441" lon="23.532016612">
        <ele>37</ele>
        <time>2012-02-21T18:36:45Z</time>
      </trkpt>
      <trkpt lat="60.0220626258" lon="23.5323099785">
        <ele>38</ele>
        <time>2012-02-21T18:36:50Z</time>
      </trkpt>
      <trkpt lat="60.0220347979" lon="23.5325502038">
        <ele>39</ele>
        <time>2012-02-21T18:36:54Z</time>
      </trkpt>
      <trkpt lat="60.0220094008" lon="23.5328278961">
        <ele>39.8</ele>
        <time>2012-02-21T18:36:59Z</time>
      </trkpt>
      <trkpt lat="60.0219903739" lon="23.5330669479">
        <ele>41</ele>
        <time>2012-02-21T18:37:03Z</time>
      </trkpt>
      <trkpt lat="60.0219718499" lon="23.5333953507">
        <ele>41.8</ele>
        <time>2012-02-21T18:37:08Z</time>
      </trkpt>
      <trkpt lat="60.021951398" lon="23.5337558562">
        <ele>42.4</ele>
        <time>2012-02-21T18:37:14Z</time>
      </trkpt>
      <trkpt lat="60.0219324549" lon="23.5340624662">
        <ele>42.8</ele>
        <time>2012-02-21T18:37:19Z</time>
      </trkpt>
      <trkpt lat="60.0219260847" lon="23.5343650527">
        <ele>43.8</ele>
        <time>2012-02-21T18:37:24Z</time>
      </trkpt>
      <trkpt lat="60.0219286831" lon="23.5346892646">
        <ele>44.4</ele>
        <time>2012-02-21T18:37:29Z</time>
      </trkpt>
      <trkpt lat="60.0219522362" lon="23.535008615">
        <ele>44.6</ele>
        <time>2012-02-21T18:37:34Z</time>
      </trkpt>
      <trkpt lat="60.0219709279" lon="23.5354176517">
        <ele>45</ele>
        <time>2012-02-21T18:37:40Z</time>
      </trkpt>
      <trkpt lat="60.0219469556" lon="23.53581948">
        <ele>45.8</ele>
        <time>2012-02-21T18:37:46Z</time>
      </trkpt>
      <trkpt lat="60.0218877794" lon="23.5361471285">
        <ele>46.4</ele>
        <time>2012-02-21T18:37:51Z</time>
      </trkpt>
      <trkpt lat="60.0218114203" lon="23.5364870984">
        <ele>46.8</ele>
        <time>2012-02-21T18:37:57Z</time>
      </trkpt>
      <trkpt lat="60.021743946" lon="23.5367770283">
        <ele>47.4</ele>
        <time>2012-02-21T18:38:02Z</time>
      </trkpt>
      <trkpt lat="60.0216802436" lon="23.5370581572">
        <ele>48.2</ele>
        <time>2012-02-21T18:38:07Z</time>
      </trkpt>
      <trkpt lat="60.0216183851" lon="23.5373553794">
        <ele>48.6</ele>
        <time>2012-02-21T18:38:12Z</time>
      </trkpt>
      <trkpt lat="60.0216021243" lon="23.5374106161">
        <ele>48.6</ele>
        <time>2012-02-21T18:38:13Z</time>
      </trkpt>
      <trkpt lat="60.0215397629" lon="23.5376203312">
        <ele>49</ele>
        <time>2012-02-21T18:38:17Z</time>
      </trkpt>
      <trkpt lat="60.0214340672" lon="23.5378853669">
        <ele>50</ele>
        <time>2012-02-21T18:38:22Z</time>
      </trkpt>
      <trkpt lat="60.0212918263" lon="23.5380690144">
        <ele>50.6</ele>
        <time>2012-02-21T18:38:27Z</time>
      </trkpt>
      <trkpt lat="60.0211783354" lon="23.5382007778">
        <ele>50.8</ele>
        <time>2012-02-21T18:38:31Z</time>
      </trkpt>
      <trkpt lat="60.0211178181" lon="23.5382840101">
        <ele>51.6</ele>
        <time>2012-02-21T18:38:34Z</time>
      </trkpt>
      <trkpt lat="60.0211311453" lon="23.5382612951">
        <ele>52.4</ele>
        <time>2012-02-21T18:38:40Z</time>
      </trkpt>
      <trkpt lat="60.021211863" lon="23.5381532524">
        <ele>53</ele>
        <time>2012-02-21T18:38:48Z</time>
      </trkpt>
      <trkpt lat="60.0213106018" lon="23.5380239197">
        <ele>53.2</ele>
        <time>2012-02-21T18:38:54Z</time>
      </trkpt>
      <trkpt lat="60.0213581272" lon="23.5379613069">
        <ele>53.2</ele>
        <time>2012-02-21T18:38:57Z</time>
      </trkpt>
      <trkpt lat="60.0214150403" lon="23.5378582096">
        <ele>52.8</ele>
        <time>2012-02-21T18:39:04Z</time>
      </trkpt>
      <trkpt lat="60.0214725401" lon="23.5377556151">
        <ele>52</ele>
        <time>2012-02-21T18:39:10Z</time>
      </trkpt>
      <trkpt lat="60.0215141981" lon="23.5375712971">
        <ele>51.8</ele>
        <time>2012-02-21T18:39:16Z</time>
      </trkpt>
      <trkpt lat="60.0215635675" lon="23.5373557985">
        <ele>50.8</ele>
        <time>2012-02-21T18:39:21Z</time>
      </trkpt>
      <trkpt lat="60.021628192" lon="23.5371115499">
        <ele>50</ele>
        <time>2012-02-21T18:39:27Z</time>
      </trkpt>
      <trkpt lat="60.0216965045" lon="23.5368226258">
        <ele>49.6</ele>
        <time>2012-02-21T18:39:33Z</time>
      </trkpt>
      <trkpt lat="60.0217743723" lon="23.5365135852">
        <ele>49.6</ele>
        <time>2012-02-21T18:39:39Z</time>
      </trkpt>
      <trkpt lat="60.0218557606" lon="23.5361768842">
        <ele>49.4</ele>
        <time>2012-02-21T18:39:46Z</time>
      </trkpt>
      <trkpt lat="60.0218964128" lon="23.5359152851">
        <ele>49.4</ele>
        <time>2012-02-21T18:39:51Z</time>
      </trkpt>
      <trkpt lat="60.0219061358" lon="23.5355752315">
        <ele>49.4</ele>
        <time>2012-02-21T18:39:57Z</time>
      </trkpt>
      <trkpt lat="60.0218962451" lon="23.5352129657">
        <ele>49.4</ele>
        <time>2012-02-21T18:40:03Z</time>
      </trkpt>
      <trkpt lat="60.0218850134" lon="23.5348053539">
        <ele>49.2</ele>
        <time>2012-02-21T18:40:10Z</time>
      </trkpt>
      <trkpt lat="60.0218797328" lon="23.5345402345">
        <ele>49.6</ele>
        <time>2012-02-21T18:40:15Z</time>
      </trkpt>
      <trkpt lat="60.0218707642" lon="23.5342616201">
        <ele>50.4</ele>
        <time>2012-02-21T18:40:20Z</time>
      </trkpt>
      <trkpt lat="60.0218752066" lon="23.5339027071">
        <ele>50.8</ele>
        <time>2012-02-21T18:40:26Z</time>
      </trkpt>
      <trkpt lat="60.0218996817" lon="23.5335632402">
        <ele>51</ele>
        <time>2012-02-21T18:40:32Z</time>
      </trkpt>
      <trkpt lat="60.02190974" lon="23.5333621584">
        <ele>51.2</ele>
        <time>2012-02-21T18:40:36Z</time>
      </trkpt>
      <trkpt lat="60.0219479615" lon="23.5329934386">
        <ele>51.2</ele>
        <time>2012-02-21T18:40:43Z</time>
      </trkpt>
      <trkpt lat="60.0219753703" lon="23.5326272334">
        <ele>51.4</ele>
        <time>2012-02-21T18:40:49Z</time>
      </trkpt>
      <trkpt lat="60.0220072215" lon="23.5323441767">
        <ele>51.4</ele>
        <time>2012-02-21T18:40:54Z</time>
      </trkpt>
      <trkpt lat="60.0220601113" lon="23.5320053803">
        <ele>51.4</ele>
        <time>2012-02-21T18:41:00Z</time>
      </trkpt>
      <trkpt lat="60.0221075528" lon="23.5317020393">
        <ele>51.4</ele>
        <time>2012-02-21T18:41:05Z</time>
      </trkpt>
      <trkpt lat="60.0221600235" lon="23.5313519273">
        <ele>51.4</ele>
        <time>2012-02-21T18:41:11Z</time>
      </trkpt>
      <trkpt lat="60.0221647174" lon="23.5310866402">
        <ele>51.4</ele>
        <time>2012-02-21T18:41:16Z</time>
      </trkpt>
      <trkpt lat="60.0221188684" lon="23.5308951138">
        <ele>51.4</ele>
        <time>2012-02-21T18:41:20Z</time>
      </trkpt>
      <trkpt lat="60.0220202973" lon="23.5306123085">
        <ele>51</ele>
        <time>2012-02-21T18:41:27Z</time>
      </trkpt>
      <trkpt lat="60.0219568463" lon="23.5303218756">
        <ele>50.2</ele>
        <time>2012-02-21T18:41:33Z</time>
      </trkpt>
      <trkpt lat="60.0219294375" lon="23.5300586002">
        <ele>48.8</ele>
        <time>2012-02-21T18:41:38Z</time>
      </trkpt>
      <trkpt lat="60.0219215585" lon="23.5296578615">
        <ele>47.4</ele>
        <time>2012-02-21T18:41:45Z</time>
      </trkpt>
      <trkpt lat="60.0219769628" lon="23.5293579571">
        <ele>45.8</ele>
        <time>2012-02-21T18:41:51Z</time>
      </trkpt>
      <trkpt lat="60.0220428446" lon="23.5290334938">
        <ele>44.6</ele>
        <time>2012-02-21T18:41:57Z</time>
      </trkpt>
      <trkpt lat="60.0220679064" lon="23.5288971203">
        <ele>43.2</ele>
        <time>2012-02-21T18:42:01Z</time>
      </trkpt>
      <trkpt lat="60.0220967402" lon="23.528789329">
        <ele>42</ele>
        <time>2012-02-21T18:42:07Z</time>
      </trkpt>
      <trkpt lat="60.0220937227" lon="23.5288412968">
        <ele>39.4</ele>
        <time>2012-02-21T18:42:22Z</time>
      </trkpt>
      <trkpt lat="60.0220674035" lon="23.5290531913">
        <ele>38.4</ele>
        <time>2012-02-21T18:42:26Z</time>
      </trkpt>
      <trkpt lat="60.0220303555" lon="23.5293665905">
        <ele>37.6</ele>
        <time>2012-02-21T18:42:31Z</time>
      </trkpt>
      <trkpt lat="60.021989871" lon="23.529665992">
        <ele>37.2</ele>
        <time>2012-02-21T18:42:36Z</time>
      </trkpt>
      <trkpt lat="60.0219783878" lon="23.5299213046">
        <ele>37</ele>
        <time>2012-02-21T18:42:40Z</time>
      </trkpt>
      <trkpt lat="60.0219973308" lon="23.5302191974">
        <ele>36.8</ele>
        <time>2012-02-21T18:42:45Z</time>
      </trkpt>
      <trkpt lat="60.0220086464" lon="23.5303272401">
        <ele>36.8</ele>
        <time>2012-02-21T18:42:47Z</time>
      </trkpt>
      <trkpt lat="60.0220423417" lon="23.5305371228">
        <ele>36.6</ele>
        <time>2012-02-21T18:42:51Z</time>
      </trkpt>
      <trkpt lat="60.0220622906" lon="23.5305988974">
        <ele>36.6</ele>
        <time>2012-02-21T18:42:52Z</time>
      </trkpt>
      <trkpt lat="60.0221616999" lon="23.5308575629">
        <ele>36.6</ele>
        <time>2012-02-21T18:42:57Z</time>
      </trkpt>
      <trkpt lat="60.0222175234" lon="23.5311030687">
        <ele>36.6</ele>
        <time>2012-02-21T18:43:01Z</time>
      </trkpt>
      <trkpt lat="60.0222243127" lon="23.5313736365">
        <ele>36.6</ele>
        <time>2012-02-21T18:43:05Z</time>
      </trkpt>
      <trkpt lat="60.0221949761" lon="23.5316926516">
        <ele>36.6</ele>
        <time>2012-02-21T18:43:10Z</time>
      </trkpt>
      <trkpt lat="60.0221508034" lon="23.5319686675">
        <ele>36.8</ele>
        <time>2012-02-21T18:43:15Z</time>
      </trkpt>
      <trkpt lat="60.022093136" lon="23.5323161811">
        <ele>37.6</ele>
        <time>2012-02-21T18:43:21Z</time>
      </trkpt>
      <trkpt lat="60.0220550821" lon="23.5326700649">
        <ele>38</ele>
        <time>2012-02-21T18:43:27Z</time>
      </trkpt>
      <trkpt lat="60.0220168607" lon="23.5330651039">
        <ele>39.2</ele>
        <time>2012-02-21T18:43:34Z</time>
      </trkpt>
      <trkpt lat="60.0219918826" lon="23.5334847856">
        <ele>39.8</ele>
        <time>2012-02-21T18:43:40Z</time>
      </trkpt>
      <trkpt lat="60.0219725204" lon="23.533873119">
        <ele>41</ele>
        <time>2012-02-21T18:43:46Z</time>
      </trkpt>
      <trkpt lat="60.0219615401" lon="23.5342407492">
        <ele>42</ele>
        <time>2012-02-21T18:43:52Z</time>
      </trkpt>
      <trkpt lat="60.0219659825" lon="23.5346393085">
        <ele>43.4</ele>
        <time>2012-02-21T18:43:58Z</time>
      </trkpt>
      <trkpt lat="60.0219785554" lon="23.5348317569">
        <ele>43.8</ele>
        <time>2012-02-21T18:44:01Z</time>
      </trkpt>
      <trkpt lat="60.0219807347" lon="23.5350482614">
        <ele>44.6</ele>
        <time>2012-02-21T18:44:04Z</time>
      </trkpt>
      <trkpt lat="60.021992637" lon="23.5354497544">
        <ele>45.6</ele>
        <time>2012-02-21T18:44:10Z</time>
      </trkpt>
      <trkpt lat="60.0219844227" lon="23.5358399319">
        <ele>46.2</ele>
        <time>2012-02-21T18:44:16Z</time>
      </trkpt>
      <trkpt lat="60.0219192954" lon="23.5362228171">
        <ele>47.2</ele>
        <time>2012-02-21T18:44:22Z</time>
      </trkpt>
      <trkpt lat="60.0218575208" lon="23.5365151777">
        <ele>48</ele>
        <time>2012-02-21T18:44:27Z</time>
      </trkpt>
      <trkpt lat="60.0217896274" lon="23.5368098853">
        <ele>48.4</ele>
        <time>2012-02-21T18:44:32Z</time>
      </trkpt>
      <trkpt lat="60.0217107537" lon="23.53715874">
        <ele>49</ele>
        <time>2012-02-21T18:44:38Z</time>
      </trkpt>
      <trkpt lat="60.0216126016" lon="23.5375349197">
        <ele>50</ele>
        <time>2012-02-21T18:44:45Z</time>
      </trkpt>
      <trkpt lat="60.0215453788" lon="23.537806158">
        <ele>50.4</ele>
        <time>2012-02-21T18:44:50Z</time>
      </trkpt>
      <trkpt lat="60.0215248431" lon="23.5378519231">
        <ele>50.6</ele>
        <time>2012-02-21T18:44:51Z</time>
      </trkpt>
      <trkpt lat="60.021407748" lon="23.5379973491">
        <ele>51.6</ele>
        <time>2012-02-21T18:44:56Z</time>
      </trkpt>
      <trkpt lat="60.0213805068" lon="23.5380304576">
        <ele>51.8</ele>
        <time>2012-02-21T18:44:57Z</time>
      </trkpt>
      <trkpt lat="60.021298448" lon="23.5381207307">
        <ele>52.2</ele>
        <time>2012-02-21T18:45:00Z</time>
      </trkpt>
      <trkpt lat="60.0211828616" lon="23.5382510692">
        <ele>52.6</ele>
        <time>2012-02-21T18:45:04Z</time>
      </trkpt>
      <trkpt lat="60.0211578836" lon="23.5382898774">
        <ele>52.8</ele>
        <time>2012-02-21T18:45:07Z</time>
      </trkpt>
      <trkpt lat="60.0211643376" lon="23.538289123">
        <ele>53</ele>
        <time>2012-02-21T18:45:12Z</time>
      </trkpt>
      <trkpt lat="60.021194261" lon="23.5382141889">
        <ele>53</ele>
        <time>2012-02-21T18:45:19Z</time>
      </trkpt>
      <trkpt lat="60.0212536887" lon="23.5381390032">
        <ele>53.2</ele>
        <time>2012-02-21T18:45:25Z</time>
      </trkpt>
      <trkpt lat="60.0213246834" lon="23.5380644881">
        <ele>52.8</ele>
        <time>2012-02-21T18:45:32Z</time>
      </trkpt>
      <trkpt lat="60.0213332329" lon="23.5380527535">
        <ele>52.6</ele>
        <time>2012-02-21T18:45:33Z</time>
      </trkpt>
      <trkpt lat="60.0214043114" lon="23.5379837704">
        <ele>52</ele>
        <time>2012-02-21T18:45:39Z</time>
      </trkpt>
      <trkpt lat="60.0214968476" lon="23.5378432898">
        <ele>51.6</ele>
        <time>2012-02-21T18:45:47Z</time>
      </trkpt>
      <trkpt lat="60.0215504918" lon="23.5376391905">
        <ele>51.4</ele>
        <time>2012-02-21T18:45:55Z</time>
      </trkpt>
      <trkpt lat="60.0215844385" lon="23.5375144678">
        <ele>51.4</ele>
        <time>2012-02-21T18:46:00Z</time>
      </trkpt>
      <trkpt lat="60.0216314609" lon="23.5372753322">
        <ele>51.2</ele>
        <time>2012-02-21T18:46:09Z</time>
      </trkpt>
      <trkpt lat="60.0216466322" lon="23.5371894178">
        <ele>50.8</ele>
        <time>2012-02-21T18:46:12Z</time>
      </trkpt>
      <trkpt lat="60.0217325466" lon="23.5369118931">
        <ele>50</ele>
        <time>2012-02-21T18:46:19Z</time>
      </trkpt>
      <trkpt lat="60.0217415153" lon="23.5368631942">
        <ele>49.8</ele>
        <time>2012-02-21T18:46:20Z</time>
      </trkpt>
      <trkpt lat="60.0217973387" lon="23.5366003378">
        <ele>49.6</ele>
        <time>2012-02-21T18:46:25Z</time>
      </trkpt>
      <trkpt lat="60.0218527431" lon="23.5363388226">
        <ele>49.4</ele>
        <time>2012-02-21T18:46:30Z</time>
      </trkpt>
      <trkpt lat="60.0218940658" lon="23.5361423508">
        <ele>49.4</ele>
        <time>2012-02-21T18:46:34Z</time>
      </trkpt>
      <trkpt lat="60.0219320358" lon="23.5359271874">
        <ele>49.4</ele>
        <time>2012-02-21T18:46:38Z</time>
      </trkpt>
      <trkpt lat="60.0219521524" lon="23.5355904027">
        <ele>50.2</ele>
        <time>2012-02-21T18:46:44Z</time>
      </trkpt>
      <trkpt lat="60.0219482129" lon="23.5352605749">
        <ele>50.6</ele>
        <time>2012-02-21T18:46:50Z</time>
      </trkpt>
      <trkpt lat="60.0219355562" lon="23.53493871">
        <ele>51</ele>
        <time>2012-02-21T18:46:56Z</time>
      </trkpt>
      <trkpt lat="60.0219270067" lon="23.5346678908">
        <ele>51</ele>
        <time>2012-02-21T18:47:01Z</time>
      </trkpt>
      <trkpt lat="60.0219127575" lon="23.5344036933">
        <ele>51</ele>
        <time>2012-02-21T18:47:06Z</time>
      </trkpt>
      <trkpt lat="60.0219206365" lon="23.5340244961">
        <ele>51.2</ele>
        <time>2012-02-21T18:47:13Z</time>
      </trkpt>
      <trkpt lat="60.0219287669" lon="23.5337484802">
        <ele>51.2</ele>
        <time>2012-02-21T18:47:18Z</time>
      </trkpt>
      <trkpt lat="60.021944944" lon="23.5334730509">
        <ele>51.2</ele>
        <time>2012-02-21T18:47:23Z</time>
      </trkpt>
      <trkpt lat="60.0219624621" lon="23.5331971188">
        <ele>51.2</ele>
        <time>2012-02-21T18:47:28Z</time>
      </trkpt>
      <trkpt lat="60.0219822434" lon="23.5329444883">
        <ele>51.2</ele>
        <time>2012-02-21T18:47:33Z</time>
      </trkpt>
      <trkpt lat="60.0220062995" lon="23.5326064463">
        <ele>51.2</ele>
        <time>2012-02-21T18:47:39Z</time>
      </trkpt>
      <trkpt lat="60.0220436828" lon="23.5322632913">
        <ele>51.2</ele>
        <time>2012-02-21T18:47:45Z</time>
      </trkpt>
      <trkpt lat="60.0220860114" lon="23.5319761274">
        <ele>51</ele>
        <time>2012-02-21T18:47:50Z</time>
      </trkpt>
      <trkpt lat="60.0221404937" lon="23.53170447">
        <ele>50.2</ele>
        <time>2012-02-21T18:47:55Z</time>
      </trkpt>
      <trkpt lat="60.0221758653" lon="23.5314099301">
        <ele>49.8</ele>
        <time>2012-02-21T18:48:00Z</time>
      </trkpt>
      <trkpt lat="60.022184834" lon="23.5311759074">
        <ele>49.6</ele>
        <time>2012-02-21T18:48:05Z</time>
      </trkpt>
      <trkpt lat="60.0221780446" lon="23.5310814434">
        <ele>49.4</ele>
        <time>2012-02-21T18:48:09Z</time>
      </trkpt>
      <trkpt lat="60.0221312736" lon="23.5309183316">
        <ele>48.6</ele>
        <time>2012-02-21T18:48:17Z</time>
      </trkpt>
      <trkpt lat="60.0220837482" lon="23.5307967103">
        <ele>47</ele>
        <time>2012-02-21T18:48:24Z</time>
      </trkpt>
      <trkpt lat="60.0220617038" lon="23.5307480953">
        <ele>46.2</ele>
        <time>2012-02-21T18:48:27Z</time>
      </trkpt>
      <trkpt lat="60.0219524877" lon="23.530379124">
        <ele>42.2</ele>
        <time>2012-02-21T18:48:42Z</time>
      </trkpt>
      <trkpt lat="60.0219431" lon="23.5303209536">
        <ele>41.8</ele>
        <time>2012-02-21T18:48:44Z</time>
      </trkpt>
      <trkpt lat="60.021915775" lon="23.5301608593">
        <ele>40.2</ele>
        <time>2012-02-21T18:48:50Z</time>
      </trkpt>
      <trkpt lat="60.0219150206" lon="23.5301380606">
        <ele>40</ele>
        <time>2012-02-21T18:48:51Z</time>
      </trkpt>
      <trkpt lat="60.021923151" lon="23.5298807362">
        <ele>38.4</ele>
        <time>2012-02-21T18:49:00Z</time>
      </trkpt>
      <trkpt lat="60.0219382385" lon="23.5296115096">
        <ele>37.4</ele>
        <time>2012-02-21T18:49:08Z</time>
      </trkpt>
      <trkpt lat="60.021969" lon="23.5293820132">
        <ele>36.8</ele>
        <time>2012-02-21T18:49:15Z</time>
      </trkpt>
      <trkpt lat="60.0219969956" lon="23.5291855415">
        <ele>36.8</ele>
        <time>2012-02-21T18:49:21Z</time>
      </trkpt>
      <trkpt lat="60.0220201296" lon="23.5290581366">
        <ele>36.6</ele>
        <time>2012-02-21T18:49:25Z</time>
      </trkpt>
      <trkpt lat="60.0220521485" lon="23.5288749082">
        <ele>36.6</ele>
        <time>2012-02-21T18:49:32Z</time>
      </trkpt>
      <trkpt lat="60.022054663" lon="23.5288548755">
        <ele>36.6</ele>
        <time>2012-02-21T18:49:33Z</time>
      </trkpt>
      <trkpt lat="60.0220595245" lon="23.5288134689">
        <ele>36.6</ele>
        <time>2012-02-21T18:49:35Z</time>
      </trkpt>
      <trkpt lat="60.0220686608" lon="23.5288257903">
        <ele>36.6</ele>
        <time>2012-02-21T18:49:44Z</time>
      </trkpt>
      <trkpt lat="60.0220450239" lon="23.5290215077">
        <ele>36.6</ele>
        <time>2012-02-21T18:49:48Z</time>
      </trkpt>
      <trkpt lat="60.0220021924" lon="23.5293376729">
        <ele>35.8</ele>
        <time>2012-02-21T18:49:53Z</time>
      </trkpt>
      <trkpt lat="60.0219742806" lon="23.5297459553">
        <ele>35.2</ele>
        <time>2012-02-21T18:49:59Z</time>
      </trkpt>
      <trkpt lat="60.021987524" lon="23.5300746096">
        <ele>35</ele>
        <time>2012-02-21T18:50:04Z</time>
      </trkpt>
      <trkpt lat="60.0220368934" lon="23.5303972289">
        <ele>34.8</ele>
        <time>2012-02-21T18:50:09Z</time>
      </trkpt>
      <trkpt lat="60.0221126658" lon="23.530687075">
        <ele>34.6</ele>
        <time>2012-02-21T18:50:14Z</time>
      </trkpt>
      <trkpt lat="60.0221978259" lon="23.5309547091">
        <ele>34.6</ele>
        <time>2012-02-21T18:50:19Z</time>
      </trkpt>
      <trkpt lat="60.0222430882" lon="23.5313022227">
        <ele>35</ele>
        <time>2012-02-21T18:50:24Z</time>
      </trkpt>
      <trkpt lat="60.0222088062" lon="23.5316736247">
        <ele>35.6</ele>
        <time>2012-02-21T18:50:29Z</time>
      </trkpt>
      <trkpt lat="60.0221429245" lon="23.5320012731">
        <ele>36.2</ele>
        <time>2012-02-21T18:50:35Z</time>
      </trkpt>
      <trkpt lat="60.0221124982" lon="23.5321702522">
        <ele>36.6</ele>
        <time>2012-02-21T18:50:37Z</time>
      </trkpt>
      <trkpt lat="60.022096824" lon="23.5323046141">
        <ele>37</ele>
        <time>2012-02-21T18:50:39Z</time>
      </trkpt>
      <trkpt lat="60.0220691637" lon="23.5325775287">
        <ele>37.6</ele>
        <time>2012-02-21T18:50:43Z</time>
      </trkpt>
      <trkpt lat="60.0220380669" lon="23.5329205999">
        <ele>38.4</ele>
        <time>2012-02-21T18:50:48Z</time>
      </trkpt>
      <trkpt lat="60.0220104066" lon="23.5332086858">
        <ele>39.2</ele>
        <time>2012-02-21T18:50:52Z</time>
      </trkpt>
      <trkpt lat="60.0219891166" lon="23.5335535172">
        <ele>39.8</ele>
        <time>2012-02-21T18:50:57Z</time>
      </trkpt>
      <trkpt lat="60.0219735263" lon="23.5339218179">
        <ele>40.8</ele>
        <time>2012-02-21T18:51:02Z</time>
      </trkpt>
      <trkpt lat="60.0219598638" lon="23.5342480414">
        <ele>41.6</ele>
        <time>2012-02-21T18:51:07Z</time>
      </trkpt>
      <trkpt lat="60.0219542479" lon="23.5346440024">
        <ele>42.4</ele>
        <time>2012-02-21T18:51:13Z</time>
      </trkpt>
      <trkpt lat="60.0219654796" lon="23.5350784363">
        <ele>43.6</ele>
        <time>2012-02-21T18:51:19Z</time>
      </trkpt>
      <trkpt lat="60.0219783039" lon="23.5354466531">
        <ele>44.4</ele>
        <time>2012-02-21T18:51:24Z</time>
      </trkpt>
      <trkpt lat="60.0219702573" lon="23.5358059852">
        <ele>45.4</ele>
        <time>2012-02-21T18:51:29Z</time>
      </trkpt>
      <trkpt lat="60.0219252465" lon="23.5362125911">
        <ele>46</ele>
        <time>2012-02-21T18:51:35Z</time>
      </trkpt>
      <trkpt lat="60.02185509" lon="23.5365231405">
        <ele>47.2</ele>
        <time>2012-02-21T18:51:40Z</time>
      </trkpt>
      <trkpt lat="60.0217781442" lon="23.5368876694">
        <ele>48</ele>
        <time>2012-02-21T18:51:46Z</time>
      </trkpt>
      <trkpt lat="60.0216946604" lon="23.5372459118">
        <ele>49.2</ele>
        <time>2012-02-21T18:51:52Z</time>
      </trkpt>
      <trkpt lat="60.0216101709" lon="23.5375925872">
        <ele>50.4</ele>
        <time>2012-02-21T18:51:58Z</time>
      </trkpt>
      <trkpt lat="60.0215483125" lon="23.5378085887">
        <ele>51.4</ele>
        <time>2012-02-21T18:52:02Z</time>
      </trkpt>
      <trkpt lat="60.0214245118" lon="23.5379821779">
        <ele>52.6</ele>
        <time>2012-02-21T18:52:07Z</time>
      </trkpt>
      <trkpt lat="60.0213209953" lon="23.5381193896">
        <ele>53.6</ele>
        <time>2012-02-21T18:52:11Z</time>
      </trkpt>
      <trkpt lat="60.0212184009" lon="23.5382395022">
        <ele>54.2</ele>
        <time>2012-02-21T18:52:15Z</time>
      </trkpt>
      <trkpt lat="60.0211722166" lon="23.5383046296">
        <ele>54.6</ele>
        <time>2012-02-21T18:52:19Z</time>
      </trkpt>
      <trkpt lat="60.0212020562" lon="23.5382442799">
        <ele>55</ele>
        <time>2012-02-21T18:52:25Z</time>
      </trkpt>
      <trkpt lat="60.0212562871" lon="23.5381701001">
        <ele>55.2</ele>
        <time>2012-02-21T18:52:33Z</time>
      </trkpt>
      <trkpt lat="60.0213381782" lon="23.5380616383">
        <ele>55.4</ele>
        <time>2012-02-21T18:52:41Z</time>
      </trkpt>
      <trkpt lat="60.021442952" lon="23.5379258515">
        <ele>55.2</ele>
        <time>2012-02-21T18:52:50Z</time>
      </trkpt>
      <trkpt lat="60.0215283635" lon="23.5378142884">
        <ele>54.4</ele>
        <time>2012-02-21T18:52:57Z</time>
      </trkpt>
      <trkpt lat="60.0215519167" lon="23.5377396895">
        <ele>54</ele>
        <time>2012-02-21T18:53:00Z</time>
      </trkpt>
      <trkpt lat="60.0215706921" lon="23.5376216723">
        <ele>53.8</ele>
        <time>2012-02-21T18:53:04Z</time>
      </trkpt>
      <trkpt lat="60.021594832" lon="23.5374636735">
        <ele>53.8</ele>
        <time>2012-02-21T18:53:09Z</time>
      </trkpt>
      <trkpt lat="60.0216489791" lon="23.5372589875">
        <ele>53.6</ele>
        <time>2012-02-21T18:53:16Z</time>
      </trkpt>
      <trkpt lat="60.0217125139" lon="23.5370883321">
        <ele>53.6</ele>
        <time>2012-02-21T18:53:21Z</time>
      </trkpt>
      <trkpt lat="60.0217348097" lon="23.5370141522">
        <ele>53.6</ele>
        <time>2012-02-21T18:53:23Z</time>
      </trkpt>
      <trkpt lat="60.0218069779" lon="23.5367364599">
        <ele>53.4</ele>
        <time>2012-02-21T18:53:30Z</time>
      </trkpt>
      <trkpt lat="60.021847211" lon="23.5365242302">
        <ele>53.4</ele>
        <time>2012-02-21T18:53:35Z</time>
      </trkpt>
      <trkpt lat="60.0219005199" lon="23.5362452806">
        <ele>53.4</ele>
        <time>2012-02-21T18:53:42Z</time>
      </trkpt>
      <trkpt lat="60.0219404177" lon="23.5360198913">
        <ele>53.4</ele>
        <time>2012-02-21T18:53:47Z</time>
      </trkpt>
      <trkpt lat="60.0219607858" lon="23.5358084159">
        <ele>53.4</ele>
        <time>2012-02-21T18:53:52Z</time>
      </trkpt>
      <trkpt lat="60.0219607858" lon="23.5355189889">
        <ele>53.4</ele>
        <time>2012-02-21T18:53:58Z</time>
      </trkpt>
      <trkpt lat="60.0219512304" lon="23.5352779255">
        <ele>53.4</ele>
        <time>2012-02-21T18:54:03Z</time>
      </trkpt>
      <trkpt lat="60.0219358915" lon="23.5350304918">
        <ele>53.4</ele>
        <time>2012-02-21T18:54:08Z</time>
      </trkpt>
      <trkpt lat="60.0219261685" lon="23.5348008277">
        <ele>53.4</ele>
        <time>2012-02-21T18:54:13Z</time>
      </trkpt>
      <trkpt lat="60.0219187086" lon="23.5345687329">
        <ele>53.4</ele>
        <time>2012-02-21T18:54:18Z</time>
      </trkpt>
      <trkpt lat="60.0219095724" lon="23.5342977461">
        <ele>53.4</ele>
        <time>2012-02-21T18:54:24Z</time>
      </trkpt>
      <trkpt lat="60.0219121707" lon="23.534106052">
        <ele>53.4</ele>
        <time>2012-02-21T18:54:28Z</time>
      </trkpt>
      <trkpt lat="60.0219265038" lon="23.5338634798">
        <ele>53</ele>
        <time>2012-02-21T18:54:33Z</time>
      </trkpt>
      <trkpt lat="60.0219234025" lon="23.5335493262">
        <ele>52.4</ele>
        <time>2012-02-21T18:54:39Z</time>
      </trkpt>
      <trkpt lat="60.0219374003" lon="23.5332835362">
        <ele>52</ele>
        <time>2012-02-21T18:54:44Z</time>
      </trkpt>
      <trkpt lat="60.0219607019" lon="23.5330054247">
        <ele>51.8</ele>
        <time>2012-02-21T18:54:50Z</time>
      </trkpt>
      <trkpt lat="60.0219846742" lon="23.5327517884">
        <ele>51.6</ele>
        <time>2012-02-21T18:54:55Z</time>
      </trkpt>
      <trkpt lat="60.0220160225" lon="23.5323922888">
        <ele>51.4</ele>
        <time>2012-02-21T18:55:02Z</time>
      </trkpt>
      <trkpt lat="60.0220540763" lon="23.5320832481">
        <ele>51</ele>
        <time>2012-02-21T18:55:08Z</time>
      </trkpt>
      <trkpt lat="60.0221091454" lon="23.5317431944">
        <ele>50.2</ele>
        <time>2012-02-21T18:55:14Z</time>
      </trkpt>
      <trkpt lat="60.0221461934" lon="23.5315069925">
        <ele>49.8</ele>
        <time>2012-02-21T18:55:19Z</time>
      </trkpt>
      <trkpt lat="60.0221604426" lon="23.5314143725">
        <ele>49.8</ele>
        <time>2012-02-21T18:55:22Z</time>
      </trkpt>
      <trkpt lat="60.0221745242" lon="23.5311744825">
        <ele>49</ele>
        <time>2012-02-21T18:55:30Z</time>
      </trkpt>
      <trkpt lat="60.0221316089" lon="23.5308946947">
        <ele>47.8</ele>
        <time>2012-02-21T18:55:41Z</time>
      </trkpt>
      <trkpt lat="60.0221239814" lon="23.5308730694">
        <ele>47.8</ele>
        <time>2012-02-21T18:55:42Z</time>
      </trkpt>
      <trkpt lat="60.0220923816" lon="23.5308036673">
        <ele>47.2</ele>
        <time>2012-02-21T18:55:46Z</time>
      </trkpt>
      <trkpt lat="60.0220791382" lon="23.5307492687">
        <ele>46.6</ele>
        <time>2012-02-21T18:55:49Z</time>
      </trkpt>
      <trkpt lat="60.022035217" lon="23.5306452493">
        <ele>46</ele>
        <time>2012-02-21T18:55:54Z</time>
      </trkpt>
      <trkpt lat="60.021974113" lon="23.5304280743">
        <ele>44.4</ele>
        <time>2012-02-21T18:56:03Z</time>
      </trkpt>
      <trkpt lat="60.0219684971" lon="23.530403683">
        <ele>44.4</ele>
        <time>2012-02-21T18:56:04Z</time>
      </trkpt>
      <trkpt lat="60.0219600314" lon="23.5302875098">
        <ele>44</ele>
        <time>2012-02-21T18:56:08Z</time>
      </trkpt>
      <trkpt lat="60.0219270067" lon="23.5300537387">
        <ele>42.4</ele>
        <time>2012-02-21T18:56:16Z</time>
      </trkpt>
      <trkpt lat="60.0219209717" lon="23.5298130943">
        <ele>41.6</ele>
        <time>2012-02-21T18:56:24Z</time>
      </trkpt>
      <trkpt lat="60.0219349695" lon="23.5295406826">
        <ele>41.2</ele>
        <time>2012-02-21T18:56:33Z</time>
      </trkpt>
      <trkpt lat="60.0219736939" lon="23.5293382597">
        <ele>41.2</ele>
        <time>2012-02-21T18:56:40Z</time>
      </trkpt>
      <trkpt lat="60.0220123344" lon="23.5291325678">
        <ele>41</ele>
        <time>2012-02-21T18:56:47Z</time>
      </trkpt>
      <trkpt lat="60.0220470355" lon="23.5289544525">
        <ele>40</ele>
        <time>2012-02-21T18:56:53Z</time>
      </trkpt>
      <trkpt lat="60.0220785515" lon="23.5288121278">
        <ele>39.6</ele>
        <time>2012-02-21T18:56:59Z</time>
      </trkpt>
      <trkpt lat="60.0220798926" lon="23.5288000579">
        <ele>39.2</ele>
        <time>2012-02-21T18:57:09Z</time>
      </trkpt>
      <trkpt lat="60.0220525676" lon="23.529088982">
        <ele>38.4</ele>
        <time>2012-02-21T18:57:14Z</time>
      </trkpt>
      <trkpt lat="60.0220057127" lon="23.5294753037">
        <ele>37.6</ele>
        <time>2012-02-21T18:57:20Z</time>
      </trkpt>
      <trkpt lat="60.0219772981" lon="23.52966507">
        <ele>37.6</ele>
        <time>2012-02-21T18:57:23Z</time>
      </trkpt>
      <trkpt lat="60.0219701735" lon="23.5298037904">
        <ele>37.4</ele>
        <time>2012-02-21T18:57:25Z</time>
      </trkpt>
      <trkpt lat="60.0219879431" lon="23.5301162676">
        <ele>37.2</ele>
        <time>2012-02-21T18:57:30Z</time>
      </trkpt>
      <trkpt lat="60.0220415035" lon="23.5304256436">
        <ele>37.2</ele>
        <time>2012-02-21T18:57:35Z</time>
      </trkpt>
      <trkpt lat="60.0221189522" lon="23.5307211055">
        <ele>37</ele>
        <time>2012-02-21T18:57:40Z</time>
      </trkpt>
      <trkpt lat="60.022219535" lon="23.5310923399">
        <ele>37</ele>
        <time>2012-02-21T18:57:46Z</time>
      </trkpt>
      <trkpt lat="60.0222321917" lon="23.5313929148">
        <ele>37</ele>
        <time>2012-02-21T18:57:50Z</time>
      </trkpt>
      <trkpt lat="60.0221958142" lon="23.5317375785">
        <ele>37</ele>
        <time>2012-02-21T18:57:55Z</time>
      </trkpt>
      <trkpt lat="60.0221508034" lon="23.5320408357">
        <ele>37.4</ele>
        <time>2012-02-21T18:58:00Z</time>
      </trkpt>
      <trkpt lat="60.0221184493" lon="23.5322977409">
        <ele>38</ele>
        <time>2012-02-21T18:58:04Z</time>
      </trkpt>
      <trkpt lat="60.0220855084" lon="23.5325691468">
        <ele>38.6</ele>
        <time>2012-02-21T18:58:08Z</time>
      </trkpt>
      <trkpt lat="60.0220399947" lon="23.532895538">
        <ele>39.8</ele>
        <time>2012-02-21T18:58:13Z</time>
      </trkpt>
      <trkpt lat="60.0220103228" lon="23.5332346697">
        <ele>40.4</ele>
        <time>2012-02-21T18:58:18Z</time>
      </trkpt>
      <trkpt lat="60.0219920503" lon="23.5335132002">
        <ele>40.6</ele>
        <time>2012-02-21T18:58:22Z</time>
      </trkpt>
      <trkpt lat="60.0219705926" lon="23.533914358">
        <ele>41</ele>
        <time>2012-02-21T18:58:28Z</time>
      </trkpt>
      <trkpt lat="60.0219638871" lon="23.534607122">
        <ele>42.2</ele>
        <time>2012-02-21T18:58:38Z</time>
      </trkpt>
      <trkpt lat="60.0219690838" lon="23.534670573">
        <ele>42.4</ele>
        <time>2012-02-21T18:58:39Z</time>
      </trkpt>
      <trkpt lat="60.0219850095" lon="23.5350568948">
        <ele>43</ele>
        <time>2012-02-21T18:58:44Z</time>
      </trkpt>
      <trkpt lat="60.0219959897" lon="23.5354570467">
        <ele>44</ele>
        <time>2012-02-21T18:58:49Z</time>
      </trkpt>
      <trkpt lat="60.0219865182" lon="23.5358496549">
        <ele>44.4</ele>
        <time>2012-02-21T18:58:54Z</time>
      </trkpt>
      <trkpt lat="60.0219471233" lon="23.5361583602">
        <ele>45.2</ele>
        <time>2012-02-21T18:58:58Z</time>
      </trkpt>
      <trkpt lat="60.0218933953" lon="23.5365210451">
        <ele>46.2</ele>
        <time>2012-02-21T18:59:03Z</time>
      </trkpt>
      <trkpt lat="60.0218261725" lon="23.5368472686">
        <ele>47.2</ele>
        <time>2012-02-21T18:59:08Z</time>
      </trkpt>
      <trkpt lat="60.0217559321" lon="23.537155052">
        <ele>48.2</ele>
        <time>2012-02-21T18:59:13Z</time>
      </trkpt>
      <trkpt lat="60.0216783996" lon="23.5373917568">
        <ele>49.2</ele>
        <time>2012-02-21T18:59:17Z</time>
      </trkpt>
      <trkpt lat="60.0215850252" lon="23.5377639132">
        <ele>50.4</ele>
        <time>2012-02-21T18:59:23Z</time>
      </trkpt>
      <trkpt lat="60.0214808382" lon="23.5379743827">
        <ele>51.2</ele>
        <time>2012-02-21T18:59:27Z</time>
      </trkpt>
      <trkpt lat="60.02136609" lon="23.5381012847">
        <ele>52.2</ele>
        <time>2012-02-21T18:59:31Z</time>
      </trkpt>
      <trkpt lat="60.0212249388" lon="23.5382402566">
        <ele>52.8</ele>
        <time>2012-02-21T18:59:36Z</time>
      </trkpt>
      <trkpt lat="60.0212137908" lon="23.538267833">
        <ele>53.2</ele>
        <time>2012-02-21T18:59:41Z</time>
      </trkpt>
      <trkpt lat="60.021200296" lon="23.5382458724">
        <ele>53.8</ele>
        <time>2012-02-21T18:59:54Z</time>
      </trkpt>
      <trkpt lat="60.0212334045" lon="23.5381773923">
        <ele>53.8</ele>
        <time>2012-02-21T18:59:59Z</time>
      </trkpt>
      <trkpt lat="60.0213249348" lon="23.5380750493">
        <ele>54</ele>
        <time>2012-02-21T19:00:08Z</time>
      </trkpt>
      <trkpt lat="60.0214148726" lon="23.5379794957">
        <ele>54</ele>
        <time>2012-02-21T19:00:16Z</time>
      </trkpt>
      <trkpt lat="60.0214854482" lon="23.5378957605">
        <ele>54</ele>
        <time>2012-02-21T19:00:22Z</time>
      </trkpt>
      <trkpt lat="60.0215537607" lon="23.5377940042">
        <ele>54</ele>
        <time>2012-02-21T19:00:28Z</time>
      </trkpt>
      <trkpt lat="60.0216026272" lon="23.5375988736">
        <ele>54</ele>
        <time>2012-02-21T19:00:36Z</time>
      </trkpt>
      <trkpt lat="60.0216348137" lon="23.5374434732">
        <ele>54</ele>
        <time>2012-02-21T19:00:42Z</time>
      </trkpt>
      <trkpt lat="60.0216659943" lon="23.5372824569">
        <ele>54</ele>
        <time>2012-02-21T19:00:48Z</time>
      </trkpt>
      <trkpt lat="60.0216721969" lon="23.5372523658">
        <ele>54</ele>
        <time>2012-02-21T19:00:49Z</time>
      </trkpt>
      <trkpt lat="60.0217338877" lon="23.5369808761">
        <ele>54</ele>
        <time>2012-02-21T19:00:56Z</time>
      </trkpt>
      <trkpt lat="60.021792561" lon="23.5366610228">
        <ele>54</ele>
        <time>2012-02-21T19:01:03Z</time>
      </trkpt>
      <trkpt lat="60.02185509" lon="23.5363990046">
        <ele>54</ele>
        <time>2012-02-21T19:01:09Z</time>
      </trkpt>
      <trkpt lat="60.0219131766" lon="23.5361317896">
        <ele>54</ele>
        <time>2012-02-21T19:01:14Z</time>
      </trkpt>
      <trkpt lat="60.021953745" lon="23.535877399">
        <ele>54</ele>
        <time>2012-02-21T19:01:19Z</time>
      </trkpt>
      <trkpt lat="60.0219736101" lon="23.5356270316">
        <ele>54</ele>
        <time>2012-02-21T19:01:24Z</time>
      </trkpt>
      <trkpt lat="60.0219679942" lon="23.5354104433">
        <ele>54</ele>
        <time>2012-02-21T19:01:28Z</time>
      </trkpt>
      <trkpt lat="60.0219573492" lon="23.5351018218">
        <ele>54</ele>
        <time>2012-02-21T19:01:34Z</time>
      </trkpt>
      <trkpt lat="60.0219506437" lon="23.5348102155">
        <ele>54</ele>
        <time>2012-02-21T19:01:40Z</time>
      </trkpt>
      <trkpt lat="60.0219516495" lon="23.5345590937">
        <ele>54</ele>
        <time>2012-02-21T19:01:45Z</time>
      </trkpt>
      <trkpt lat="60.0219475424" lon="23.5343231432">
        <ele>53.8</ele>
        <time>2012-02-21T19:01:50Z</time>
      </trkpt>
      <trkpt lat="60.0219452792" lon="23.5342798926">
        <ele>53.6</ele>
        <time>2012-02-21T19:01:51Z</time>
      </trkpt>
      <trkpt lat="60.0219454469" lon="23.5341137634">
        <ele>53.2</ele>
        <time>2012-02-21T19:01:54Z</time>
      </trkpt>
      <trkpt lat="60.0219464527" lon="23.5337516653">
        <ele>52.4</ele>
        <time>2012-02-21T19:02:01Z</time>
      </trkpt>
      <trkpt lat="60.0219519848" lon="23.5334787506">
        <ele>52.2</ele>
        <time>2012-02-21T19:02:06Z</time>
      </trkpt>
      <trkpt lat="60.0219719337" lon="23.5332253658">
        <ele>52.2</ele>
        <time>2012-02-21T19:02:11Z</time>
      </trkpt>
      <trkpt lat="60.0219869373" lon="23.5330226915">
        <ele>51.4</ele>
        <time>2012-02-21T19:02:15Z</time>
      </trkpt>
      <trkpt lat="60.0220109095" lon="23.532701078">
        <ele>50.6</ele>
        <time>2012-02-21T19:02:21Z</time>
      </trkpt>
      <trkpt lat="60.022056088" lon="23.5323242277">
        <ele>50.2</ele>
        <time>2012-02-21T19:02:28Z</time>
      </trkpt>
      <trkpt lat="60.0220985842" lon="23.5319793964">
        <ele>50</ele>
        <time>2012-02-21T19:02:35Z</time>
      </trkpt>
      <trkpt lat="60.0221469478" lon="23.5316545977">
        <ele>49.6</ele>
        <time>2012-02-21T19:02:42Z</time>
      </trkpt>
      <trkpt lat="60.0221800563" lon="23.5315040588">
        <ele>48.8</ele>
        <time>2012-02-21T19:02:47Z</time>
      </trkpt>
      <trkpt lat="60.0222012625" lon="23.5314023025">
        <ele>48.6</ele>
        <time>2012-02-21T19:02:51Z</time>
      </trkpt>
      <trkpt lat="60.0222127457" lon="23.5311728061">
        <ele>48.2</ele>
        <time>2012-02-21T19:02:59Z</time>
      </trkpt>
      <trkpt lat="60.0221969039" lon="23.5310200879">
        <ele>48</ele>
        <time>2012-02-21T19:03:05Z</time>
      </trkpt>
      <trkpt lat="60.0221535695" lon="23.5309107041">
        <ele>48</ele>
        <time>2012-02-21T19:03:11Z</time>
      </trkpt>
      <trkpt lat="60.0220832453" lon="23.5307399648">
        <ele>47.8</ele>
        <time>2012-02-21T19:03:18Z</time>
      </trkpt>
      <trkpt lat="60.022015771" lon="23.5305657889">
        <ele>47.8</ele>
        <time>2012-02-21T19:03:25Z</time>
      </trkpt>
      <trkpt lat="60.0219819082" lon="23.5304683913">
        <ele>47.4</ele>
        <time>2012-02-21T19:03:29Z</time>
      </trkpt>
      <trkpt lat="60.0219567625" lon="23.5303471052">
        <ele>46.6</ele>
        <time>2012-02-21T19:03:34Z</time>
      </trkpt>
      <trkpt lat="60.0219538288" lon="23.5303230491">
        <ele>46.6</ele>
        <time>2012-02-21T19:03:35Z</time>
      </trkpt>
      <trkpt lat="60.0219474585" lon="23.5302502104">
        <ele>46.4</ele>
        <time>2012-02-21T19:03:38Z</time>
      </trkpt>
      <trkpt lat="60.0219332093" lon="23.5301620328">
        <ele>46.2</ele>
        <time>2012-02-21T19:03:41Z</time>
      </trkpt>
      <trkpt lat="60.0219327902" lon="23.5299233163">
        <ele>45.2</ele>
        <time>2012-02-21T19:03:49Z</time>
      </trkpt>
      <trkpt lat="60.0219559243" lon="23.5296327996">
        <ele>44.4</ele>
        <time>2012-02-21T19:03:58Z</time>
      </trkpt>
      <trkpt lat="60.0219931399" lon="23.5294480626">
        <ele>44</ele>
        <time>2012-02-21T19:04:04Z</time>
      </trkpt>
      <trkpt lat="60.0220444371" lon="23.5292317257">
        <ele>44</ele>
        <time>2012-02-21T19:04:11Z</time>
      </trkpt>
      <trkpt lat="60.0220514779" lon="23.5291975276">
        <ele>44</ele>
        <time>2012-02-21T19:04:12Z</time>
      </trkpt>
      <trkpt lat="60.0220717621" lon="23.5290387744">
        <ele>43.8</ele>
        <time>2012-02-21T19:04:17Z</time>
      </trkpt>
      <trkpt lat="60.022101015" lon="23.5288645985">
        <ele>43.8</ele>
        <time>2012-02-21T19:04:23Z</time>
      </trkpt>
      <trkpt lat="60.0221042001" lon="23.5288379441">
        <ele>43.2</ele>
        <time>2012-02-21T19:04:30Z</time>
      </trkpt>
      <trkpt lat="60.0220620391" lon="23.5293207415">
        <ele>42.4</ele>
        <time>2012-02-21T19:04:39Z</time>
      </trkpt>
      <trkpt lat="60.0220094846" lon="23.5297121762">
        <ele>42</ele>
        <time>2012-02-21T19:04:45Z</time>
      </trkpt>
      <trkpt lat="60.0220151843" lon="23.5299917126">
        <ele>42</ele>
        <time>2012-02-21T19:04:49Z</time>
      </trkpt>
      <trkpt lat="60.0220538249" lon="23.5303373822">
        <ele>41.8</ele>
        <time>2012-02-21T19:04:54Z</time>
      </trkpt>
      <trkpt lat="60.0221269988" lon="23.530582888">
        <ele>41.8</ele>
        <time>2012-02-21T19:04:58Z</time>
      </trkpt>
      <trkpt lat="60.0222285875" lon="23.5309616661">
        <ele>41.8</ele>
        <time>2012-02-21T19:05:04Z</time>
      </trkpt>
      <trkpt lat="60.0222722572" lon="23.5313725468">
        <ele>41.8</ele>
        <time>2012-02-21T19:05:10Z</time>
      </trkpt>
      <trkpt lat="60.0222448484" lon="23.5316997762">
        <ele>41.8</ele>
        <time>2012-02-21T19:05:15Z</time>
      </trkpt>
      <trkpt lat="60.0221782123" lon="23.5320201324">
        <ele>42.2</ele>
        <time>2012-02-21T19:05:20Z</time>
      </trkpt>
      <trkpt lat="60.0221390688" lon="23.532327329">
        <ele>42.8</ele>
        <time>2012-02-21T19:05:25Z</time>
      </trkpt>
      <trkpt lat="60.0220841673" lon="23.5327275648">
        <ele>44</ele>
        <time>2012-02-21T19:05:31Z</time>
      </trkpt>
      <trkpt lat="60.0220513941" lon="23.5331039121">
        <ele>44.6</ele>
        <time>2012-02-21T19:05:36Z</time>
      </trkpt>
      <trkpt lat="60.0220268351" lon="23.5334945924">
        <ele>45.2</ele>
        <time>2012-02-21T19:05:41Z</time>
      </trkpt>
      <trkpt lat="60.0220144299" lon="23.5339246677">
        <ele>46</ele>
        <time>2012-02-21T19:05:47Z</time>
      </trkpt>
      <trkpt lat="60.0220035335" lon="23.5343363866">
        <ele>47.2</ele>
        <time>2012-02-21T19:05:53Z</time>
      </trkpt>
      <trkpt lat="60.022008395" lon="23.5347051902">
        <ele>48.4</ele>
        <time>2012-02-21T19:05:58Z</time>
      </trkpt>
      <trkpt lat="60.0220306908" lon="23.5350863152">
        <ele>49.4</ele>
        <time>2012-02-21T19:06:03Z</time>
      </trkpt>
      <trkpt lat="60.0220455268" lon="23.5353833698">
        <ele>50.4</ele>
        <time>2012-02-21T19:06:07Z</time>
      </trkpt>
      <trkpt lat="60.0220559203" lon="23.5357478986">
        <ele>51.8</ele>
        <time>2012-02-21T19:06:12Z</time>
      </trkpt>
      <trkpt lat="60.0220314452" lon="23.5360846833">
        <ele>52.8</ele>
        <time>2012-02-21T19:06:17Z</time>
      </trkpt>
      <trkpt lat="60.0219710955" lon="23.5364228092">
        <ele>54.2</ele>
        <time>2012-02-21T19:06:22Z</time>
      </trkpt>
      <trkpt lat="60.0219050461" lon="23.5367323528">
        <ele>55.2</ele>
        <time>2012-02-21T19:06:27Z</time>
      </trkpt>
      <trkpt lat="60.0218322912" lon="23.5370578219">
        <ele>56.6</ele>
        <time>2012-02-21T19:06:33Z</time>
      </trkpt>
      <trkpt lat="60.0217585305" lon="23.5373629231">
        <ele>57.4</ele>
        <time>2012-02-21T19:06:38Z</time>
      </trkpt>
      <trkpt lat="60.0216644856" lon="23.537711694">
        <ele>58.6</ele>
        <time>2012-02-21T19:06:44Z</time>
      </trkpt>
      <trkpt lat="60.0215606339" lon="23.5379785737">
        <ele>59.8</ele>
        <time>2012-02-21T19:06:49Z</time>
      </trkpt>
      <trkpt lat="60.0214450475" lon="23.538121066">
        <ele>60.8</ele>
        <time>2012-02-21T19:06:53Z</time>
      </trkpt>
      <trkpt lat="60.0213266112" lon="23.5382433579">
        <ele>61.6</ele>
        <time>2012-02-21T19:06:57Z</time>
      </trkpt>
      <trkpt lat="60.0212203287" lon="23.5383299429">
        <ele>62.6</ele>
        <time>2012-02-21T19:07:01Z</time>
      </trkpt>
      <trkpt lat="60.021184538" lon="23.5383433539">
        <ele>63.2</ele>
        <time>2012-02-21T19:07:03Z</time>
      </trkpt>
      <trkpt lat="60.0211683609" lon="23.5383029532">
        <ele>63.8</ele>
        <time>2012-02-21T19:07:07Z</time>
      </trkpt>
      <trkpt lat="60.021136845" lon="23.5382963315">
        <ele>64.4</ele>
        <time>2012-02-21T19:07:13Z</time>
      </trkpt>
      <trkpt lat="60.0211119508" lon="23.5384021949">
        <ele>67.2</ele>
        <time>2012-02-21T19:07:47Z</time>
      </trkpt>
      <trkpt lat="60.0211507589" lon="23.5383501433">
        <ele>68.6</ele>
        <time>2012-02-21T19:07:59Z</time>
      </trkpt>
      <trkpt lat="60.0212104381" lon="23.5382328805">
        <ele>68.8</ele>
        <time>2012-02-21T19:08:05Z</time>
      </trkpt>
      <trkpt lat="60.0212645851" lon="23.5381691781">
        <ele>69</ele>
        <time>2012-02-21T19:08:09Z</time>
      </trkpt>
      <trkpt lat="60.0213588815" lon="23.5380291165">
        <ele>69.8</ele>
        <time>2012-02-21T19:08:17Z</time>
      </trkpt>
      <trkpt lat="60.0214260205" lon="23.5379479797">
        <ele>70.4</ele>
        <time>2012-02-21T19:08:23Z</time>
      </trkpt>
      <trkpt lat="60.0215026311" lon="23.5378400208">
        <ele>70.8</ele>
        <time>2012-02-21T19:08:29Z</time>
      </trkpt>
      <trkpt lat="60.0215608015" lon="23.5376533559">
        <ele>71</ele>
        <time>2012-02-21T19:08:36Z</time>
      </trkpt>
      <trkpt lat="60.021576308" lon="23.5375688664">
        <ele>71</ele>
        <time>2012-02-21T19:08:39Z</time>
      </trkpt>
      <trkpt lat="60.0216609652" lon="23.5372443192">
        <ele>71.2</ele>
        <time>2012-02-21T19:08:48Z</time>
      </trkpt>
      <trkpt lat="60.0216864462" lon="23.5371599135">
        <ele>71.2</ele>
        <time>2012-02-21T19:08:50Z</time>
      </trkpt>
      <trkpt lat="60.0217271822" lon="23.5369590832">
        <ele>71.2</ele>
        <time>2012-02-21T19:08:55Z</time>
      </trkpt>
      <trkpt lat="60.0217760487" lon="23.5367139964">
        <ele>71.2</ele>
        <time>2012-02-21T19:09:01Z</time>
      </trkpt>
      <trkpt lat="60.0218394997" lon="23.5364148464">
        <ele>71.2</ele>
        <time>2012-02-21T19:09:08Z</time>
      </trkpt>
      <trkpt lat="60.0219062196" lon="23.5361861043">
        <ele>71.2</ele>
        <time>2012-02-21T19:09:13Z</time>
      </trkpt>
      <trkpt lat="60.0219473747" lon="23.5359898841">
        <ele>71.2</ele>
        <time>2012-02-21T19:09:19Z</time>
      </trkpt>
      <trkpt lat="60.0219576845" lon="23.5359617209">
        <ele>71.2</ele>
        <time>2012-02-21T19:09:20Z</time>
      </trkpt>
      <trkpt lat="60.0219743644" lon="23.5357894728">
        <ele>71.2</ele>
        <time>2012-02-21T19:09:25Z</time>
      </trkpt>
      <trkpt lat="60.0219876917" lon="23.5355007164">
        <ele>71.2</ele>
        <time>2012-02-21T19:09:30Z</time>
      </trkpt>
      <trkpt lat="60.0219891166" lon="23.5352233593">
        <ele>71.2</ele>
        <time>2012-02-21T19:09:35Z</time>
      </trkpt>
      <trkpt lat="60.0219814891" lon="23.5349991435">
        <ele>71.2</ele>
        <time>2012-02-21T19:09:40Z</time>
      </trkpt>
      <trkpt lat="60.0219854286" lon="23.5349550547">
        <ele>71.2</ele>
        <time>2012-02-21T19:09:41Z</time>
      </trkpt>
      <trkpt lat="60.0220008512" lon="23.5347274023">
        <ele>71.2</ele>
        <time>2012-02-21T19:09:46Z</time>
      </trkpt>
      <trkpt lat="60.0219827463" lon="23.534455242">
        <ele>71.2</ele>
        <time>2012-02-21T19:09:52Z</time>
      </trkpt>
      <trkpt lat="60.0219789745" lon="23.5344109856">
        <ele>71.2</ele>
        <time>2012-02-21T19:09:53Z</time>
      </trkpt>
      <trkpt lat="60.0219755379" lon="23.5341226482">
        <ele>71</ele>
        <time>2012-02-21T19:09:59Z</time>
      </trkpt>
      <trkpt lat="60.0219767114" lon="23.5339429403">
        <ele>70.4</ele>
        <time>2012-02-21T19:10:03Z</time>
      </trkpt>
      <trkpt lat="60.0219874402" lon="23.5336411919">
        <ele>69.8</ele>
        <time>2012-02-21T19:10:09Z</time>
      </trkpt>
      <trkpt lat="60.0220113286" lon="23.5334034812">
        <ele>69.6</ele>
        <time>2012-02-21T19:10:14Z</time>
      </trkpt>
      <trkpt lat="60.0220068024" lon="23.5333629966">
        <ele>69.6</ele>
        <time>2012-02-21T19:10:15Z</time>
      </trkpt>
      <trkpt lat="60.0219871887" lon="23.533109947">
        <ele>69.4</ele>
        <time>2012-02-21T19:10:20Z</time>
      </trkpt>
      <trkpt lat="60.0220001807" lon="23.5328346016">
        <ele>68.6</ele>
        <time>2012-02-21T19:10:26Z</time>
      </trkpt>
      <trkpt lat="60.0220126697" lon="23.5325881738">
        <ele>68</ele>
        <time>2012-02-21T19:10:31Z</time>
      </trkpt>
      <trkpt lat="60.0220300203" lon="23.5322810609">
        <ele>66.6</ele>
        <time>2012-02-21T19:10:37Z</time>
      </trkpt>
      <trkpt lat="60.0220762045" lon="23.5320112476">
        <ele>65.2</ele>
        <time>2012-02-21T19:10:43Z</time>
      </trkpt>
      <trkpt lat="60.0221303516" lon="23.531773034">
        <ele>64</ele>
        <time>2012-02-21T19:10:48Z</time>
      </trkpt>
      <trkpt lat="60.0221567546" lon="23.5316127721">
        <ele>62.6</ele>
        <time>2012-02-21T19:10:53Z</time>
      </trkpt>
      <trkpt lat="60.022193132" lon="23.5314365845">
        <ele>61.2</ele>
        <time>2012-02-21T19:10:59Z</time>
      </trkpt>
      <trkpt lat="60.0222053696" lon="23.5312293001">
        <ele>60</ele>
        <time>2012-02-21T19:11:06Z</time>
      </trkpt>
      <trkpt lat="60.0221844987" lon="23.5310577226">
        <ele>59.4</ele>
        <time>2012-02-21T19:11:12Z</time>
      </trkpt>
      <trkpt lat="60.0221528989" lon="23.5309527813">
        <ele>58.8</ele>
        <time>2012-02-21T19:11:17Z</time>
      </trkpt>
      <trkpt lat="60.0221377277" lon="23.5309160685">
        <ele>58.4</ele>
        <time>2012-02-21T19:11:19Z</time>
      </trkpt>
      <trkpt lat="60.0221145936" lon="23.5308174136">
        <ele>57.8</ele>
        <time>2012-02-21T19:11:23Z</time>
      </trkpt>
      <trkpt lat="60.0220724327" lon="23.5306795313">
        <ele>56.8</ele>
        <time>2012-02-21T19:11:29Z</time>
      </trkpt>
      <trkpt lat="60.0219980852" lon="23.5304296669">
        <ele>55.4</ele>
        <time>2012-02-21T19:11:38Z</time>
      </trkpt>
      <trkpt lat="60.0219534935" lon="23.5302590114">
        <ele>54.2</ele>
        <time>2012-02-21T19:11:44Z</time>
      </trkpt>
      <trkpt lat="60.0219386575" lon="23.5302033556">
        <ele>53.4</ele>
        <time>2012-02-21T19:11:47Z</time>
      </trkpt>
      <trkpt lat="60.0219281802" lon="23.5300609471">
        <ele>51.6</ele>
        <time>2012-02-21T19:11:53Z</time>
      </trkpt>
      <trkpt lat="60.0219322035" lon="23.5298946502">
        <ele>49.8</ele>
        <time>2012-02-21T19:11:59Z</time>
      </trkpt>
      <trkpt lat="60.0219550023" lon="23.5296976755">
        <ele>48</ele>
        <time>2012-02-21T19:12:06Z</time>
      </trkpt>
      <trkpt lat="60.021984758" lon="23.5295201469">
        <ele>46.2</ele>
        <time>2012-02-21T19:12:12Z</time>
      </trkpt>
      <trkpt lat="60.0220178665" lon="23.5293482341">
        <ele>45.2</ele>
        <time>2012-02-21T19:12:18Z</time>
      </trkpt>
      <trkpt lat="60.0220765398" lon="23.5291235154">
        <ele>43.8</ele>
        <time>2012-02-21T19:12:26Z</time>
      </trkpt>
      <trkpt lat="60.0221187846" lon="23.5289219307">
        <ele>42.8</ele>
        <time>2012-02-21T19:12:34Z</time>
      </trkpt>
      <trkpt lat="60.0221200419" lon="23.5288827034">
        <ele>42.6</ele>
        <time>2012-02-21T19:12:36Z</time>
      </trkpt>
      <trkpt lat="60.0221323633" lon="23.528899551">
        <ele>42.2</ele>
        <time>2012-02-21T19:12:45Z</time>
      </trkpt>
      <trkpt lat="60.0220936389" lon="23.5291594737">
        <ele>42.2</ele>
        <time>2012-02-21T19:12:49Z</time>
      </trkpt>
      <trkpt lat="60.0220510588" lon="23.5294090867">
        <ele>42.2</ele>
        <time>2012-02-21T19:12:53Z</time>
      </trkpt>
      <trkpt lat="60.0220213869" lon="23.5297412614">
        <ele>42.2</ele>
        <time>2012-02-21T19:12:58Z</time>
      </trkpt>
      <trkpt lat="60.0220216384" lon="23.5300087279">
        <ele>42.2</ele>
        <time>2012-02-21T19:13:02Z</time>
      </trkpt>
      <trkpt lat="60.0220285953" lon="23.5302833189">
        <ele>42</ele>
        <time>2012-02-21T19:13:06Z</time>
      </trkpt>
      <trkpt lat="60.0221210477" lon="23.5306046809">
        <ele>42</ele>
        <time>2012-02-21T19:13:11Z</time>
      </trkpt>
      <trkpt lat="60.0222171881" lon="23.5309111232">
        <ele>42</ele>
        <time>2012-02-21T19:13:16Z</time>
      </trkpt>
      <trkpt lat="60.0222647135" lon="23.5311964431">
        <ele>42</ele>
        <time>2012-02-21T19:13:20Z</time>
      </trkpt>
      <trkpt lat="60.0222604387" lon="23.5315799988">
        <ele>42.4</ele>
        <time>2012-02-21T19:13:25Z</time>
      </trkpt>
      <trkpt lat="60.0222055372" lon="23.5319148557">
        <ele>43.2</ele>
        <time>2012-02-21T19:13:30Z</time>
      </trkpt>
      <trkpt lat="60.0221750271" lon="23.5320377344">
        <ele>43.4</ele>
        <time>2012-02-21T19:13:32Z</time>
      </trkpt>
      <trkpt lat="60.0221021884" lon="23.5324823942">
        <ele>44.6</ele>
        <time>2012-02-21T19:13:39Z</time>
      </trkpt>
      <trkpt lat="60.022055166" lon="23.5328368647">
        <ele>45.2</ele>
        <time>2012-02-21T19:13:44Z</time>
      </trkpt>
      <trkpt lat="60.0220209678" lon="23.5332108651">
        <ele>45.6</ele>
        <time>2012-02-21T19:13:49Z</time>
      </trkpt>
      <trkpt lat="60.0219910444" lon="23.5335709515">
        <ele>45.8</ele>
        <time>2012-02-21T19:13:54Z</time>
      </trkpt>
      <trkpt lat="60.0219763761" lon="23.5339433594">
        <ele>46</ele>
        <time>2012-02-21T19:13:59Z</time>
      </trkpt>
      <trkpt lat="60.02196439" lon="23.5340851811">
        <ele>46</ele>
        <time>2012-02-21T19:14:01Z</time>
      </trkpt>
      <trkpt lat="60.0219624621" lon="23.5344596844">
        <ele>46.2</ele>
        <time>2012-02-21T19:14:06Z</time>
      </trkpt>
      <trkpt lat="60.0219664016" lon="23.5345411565">
        <ele>46.2</ele>
        <time>2012-02-21T19:14:07Z</time>
      </trkpt>
      <trkpt lat="60.0220053775" lon="23.5350090341">
        <ele>46.8</ele>
        <time>2012-02-21T19:14:13Z</time>
      </trkpt>
      <trkpt lat="60.0220151005" lon="23.5353285521">
        <ele>47.2</ele>
        <time>2012-02-21T19:14:17Z</time>
      </trkpt>
      <trkpt lat="60.0220075568" lon="23.535631474">
        <ele>47.6</ele>
        <time>2012-02-21T19:14:21Z</time>
      </trkpt>
      <trkpt lat="60.0219753703" lon="23.5360143592">
        <ele>48.6</ele>
        <time>2012-02-21T19:14:26Z</time>
      </trkpt>
      <trkpt lat="60.0219181219" lon="23.5363694165">
        <ele>49.4</ele>
        <time>2012-02-21T19:14:31Z</time>
      </trkpt>
      <trkpt lat="60.0218420142" lon="23.536693796">
        <ele>50.4</ele>
        <time>2012-02-21T19:14:36Z</time>
      </trkpt>
      <trkpt lat="60.0217369052" lon="23.5370862366">
        <ele>51.4</ele>
        <time>2012-02-21T19:14:42Z</time>
      </trkpt>
      <trkpt lat="60.0216747115" lon="23.5373610791">
        <ele>52.2</ele>
        <time>2012-02-21T19:14:46Z</time>
      </trkpt>
      <trkpt lat="60.0216015375" lon="23.5376655097">
        <ele>53.2</ele>
        <time>2012-02-21T19:14:51Z</time>
      </trkpt>
      <trkpt lat="60.0215050619" lon="23.5379448784">
        <ele>54.6</ele>
        <time>2012-02-21T19:14:56Z</time>
      </trkpt>
      <trkpt lat="60.0214318879" lon="23.5380405159">
        <ele>55.2</ele>
        <time>2012-02-21T19:14:59Z</time>
      </trkpt>
      <trkpt lat="60.0212731347" lon="23.5382187989">
        <ele>56.8</ele>
        <time>2012-02-21T19:15:05Z</time>
      </trkpt>
      <trkpt lat="60.0212432113" lon="23.5382781428">
        <ele>57.8</ele>
        <time>2012-02-21T19:15:10Z</time>
      </trkpt>
      <trkpt lat="60.0212587178" lon="23.5382436093">
        <ele>58.8</ele>
        <time>2012-02-21T19:15:15Z</time>
      </trkpt>
      <trkpt lat="60.0212804269" lon="23.5382231575">
        <ele>59.8</ele>
        <time>2012-02-21T19:15:20Z</time>
      </trkpt>
      <trkpt lat="60.0212665968" lon="23.5382198886">
        <ele>60.2</ele>
        <time>2012-02-21T19:15:25Z</time>
      </trkpt>
      <trkpt lat="60.0212881383" lon="23.5381378298">
        <ele>60.8</ele>
        <time>2012-02-21T19:15:33Z</time>
      </trkpt>
      <trkpt lat="60.0213179779" lon="23.5380945791">
        <ele>61</ele>
        <time>2012-02-21T19:15:39Z</time>
      </trkpt>
      <trkpt lat="60.0213800039" lon="23.5379958404">
        <ele>61</ele>
        <time>2012-02-21T19:15:46Z</time>
      </trkpt>
      <trkpt lat="60.0214711152" lon="23.5379093392">
        <ele>61</ele>
        <time>2012-02-21T19:15:54Z</time>
      </trkpt>
      <trkpt lat="60.0214825146" lon="23.5378826009">
        <ele>61</ele>
        <time>2012-02-21T19:15:56Z</time>
      </trkpt>
      <trkpt lat="60.0215493183" lon="23.5377634941">
        <ele>61</ele>
        <time>2012-02-21T19:16:03Z</time>
      </trkpt>
      <trkpt lat="60.0215991906" lon="23.5375672738">
        <ele>61</ele>
        <time>2012-02-21T19:16:11Z</time>
      </trkpt>
      <trkpt lat="60.0216478056" lon="23.5373993005">
        <ele>61</ele>
        <time>2012-02-21T19:16:18Z</time>
      </trkpt>
      <trkpt lat="60.0216602108" lon="23.537345824">
        <ele>61</ele>
        <time>2012-02-21T19:16:20Z</time>
      </trkpt>
      <trkpt lat="60.0216839316" lon="23.5372497674">
        <ele>61</ele>
        <time>2012-02-21T19:16:24Z</time>
      </trkpt>
      <trkpt lat="60.0217334686" lon="23.5370714844">
        <ele>60.8</ele>
        <time>2012-02-21T19:16:31Z</time>
      </trkpt>
      <trkpt lat="60.0217433593" lon="23.5370486857">
        <ele>60.6</ele>
        <time>2012-02-21T19:16:32Z</time>
      </trkpt>
      <trkpt lat="60.0217722768" lon="23.5369289921">
        <ele>60</ele>
        <time>2012-02-21T19:16:37Z</time>
      </trkpt>
      <trkpt lat="60.0218027869" lon="23.5367155051">
        <ele>59.4</ele>
        <time>2012-02-21T19:16:45Z</time>
      </trkpt>
      <trkpt lat="60.0218491389" lon="23.536538228">
        <ele>58.2</ele>
        <time>2012-02-21T19:16:52Z</time>
      </trkpt>
      <trkpt lat="60.0218918027" lon="23.5363454443">
        <ele>57.4</ele>
        <time>2012-02-21T19:16:59Z</time>
      </trkpt>
      <trkpt lat="60.0219438543" lon="23.5361146905">
        <ele>57.2</ele>
        <time>2012-02-21T19:17:04Z</time>
      </trkpt>
      <trkpt lat="60.0219701735" lon="23.5359233318">
        <ele>57.2</ele>
        <time>2012-02-21T19:17:08Z</time>
      </trkpt>
      <trkpt lat="60.0219822434" lon="23.5357799175">
        <ele>57</ele>
        <time>2012-02-21T19:17:11Z</time>
      </trkpt>
      <trkpt lat="60.0219819082" lon="23.5354527719">
        <ele>57</ele>
        <time>2012-02-21T19:17:17Z</time>
      </trkpt>
      <trkpt lat="60.0219747835" lon="23.5353991277">
        <ele>57</ele>
        <time>2012-02-21T19:17:18Z</time>
      </trkpt>
      <trkpt lat="60.0219527391" lon="23.5351112095">
        <ele>57</ele>
        <time>2012-02-21T19:17:23Z</time>
      </trkpt>
      <trkpt lat="60.0219260847" lon="23.5347857403">
        <ele>57</ele>
        <time>2012-02-21T19:17:29Z</time>
      </trkpt>
      <trkpt lat="60.0219202174" lon="23.5345846585">
        <ele>57.2</ele>
        <time>2012-02-21T19:17:33Z</time>
      </trkpt>
      <trkpt lat="60.0218906293" lon="23.5339901304">
        <ele>58.4</ele>
        <time>2012-02-21T19:17:44Z</time>
      </trkpt>
      <trkpt lat="60.0219049623" lon="23.5339385817">
        <ele>58.4</ele>
        <time>2012-02-21T19:17:45Z</time>
      </trkpt>
      <trkpt lat="60.021913428" lon="23.5337754699">
        <ele>58.6</ele>
        <time>2012-02-21T19:17:48Z</time>
      </trkpt>
      <trkpt lat="60.021914853" lon="23.5337216581">
        <ele>58.6</ele>
        <time>2012-02-21T19:17:49Z</time>
      </trkpt>
      <trkpt lat="60.0219390766" lon="23.5333752342">
        <ele>58.8</ele>
        <time>2012-02-21T19:17:56Z</time>
      </trkpt>
      <trkpt lat="60.0219410045" lon="23.533266018">
        <ele>58.8</ele>
        <time>2012-02-21T19:17:58Z</time>
      </trkpt>
      <trkpt lat="60.0219529906" lon="23.5329169119">
        <ele>58.8</ele>
        <time>2012-02-21T19:18:05Z</time>
      </trkpt>
      <trkpt lat="60.0219633003" lon="23.5326610963">
        <ele>58.8</ele>
        <time>2012-02-21T19:18:10Z</time>
      </trkpt>
      <trkpt lat="60.0219850933" lon="23.53236949">
        <ele>59</ele>
        <time>2012-02-21T19:18:16Z</time>
      </trkpt>
      <trkpt lat="60.0220314452" lon="23.5320174502">
        <ele>58.4</ele>
        <time>2012-02-21T19:18:23Z</time>
      </trkpt>
      <trkpt lat="60.0220985842" lon="23.5316419411">
        <ele>57.6</ele>
        <time>2012-02-21T19:18:30Z</time>
      </trkpt>
      <trkpt lat="60.022124149" lon="23.5314055715">
        <ele>57</ele>
        <time>2012-02-21T19:18:35Z</time>
      </trkpt>
      <trkpt lat="60.0221568384" lon="23.5311204193">
        <ele>55.8</ele>
        <time>2012-02-21T19:18:42Z</time>
      </trkpt>
      <trkpt lat="60.022153318" lon="23.5310917532">
        <ele>55.8</ele>
        <time>2012-02-21T19:18:43Z</time>
      </trkpt>
      <trkpt lat="60.0221503843" lon="23.5309884881">
        <ele>55.4</ele>
        <time>2012-02-21T19:18:48Z</time>
      </trkpt>
      <trkpt lat="60.0221209639" lon="23.5308573114">
        <ele>55</ele>
        <time>2012-02-21T19:18:54Z</time>
      </trkpt>
      <trkpt lat="60.0221174435" lon="23.5308414696">
        <ele>54.8</ele>
        <time>2012-02-21T19:18:55Z</time>
      </trkpt>
      <trkpt lat="60.0220747796" lon="23.5307029168">
        <ele>53.6</ele>
        <time>2012-02-21T19:19:02Z</time>
      </trkpt>
      <trkpt lat="60.0220083111" lon="23.5305196047">
        <ele>52.6</ele>
        <time>2012-02-21T19:19:10Z</time>
      </trkpt>
      <trkpt lat="60.0220038687" lon="23.5304998234">
        <ele>52.4</ele>
        <time>2012-02-21T19:19:11Z</time>
      </trkpt>
      <trkpt lat="60.0219927208" lon="23.5304160882">
        <ele>51.6</ele>
        <time>2012-02-21T19:19:16Z</time>
      </trkpt>
      <trkpt lat="60.0219726881" lon="23.530319864">
        <ele>51</ele>
        <time>2012-02-21T19:19:20Z</time>
      </trkpt>
      <trkpt lat="60.021946788" lon="23.5301853345">
        <ele>50</ele>
        <time>2012-02-21T19:19:25Z</time>
      </trkpt>
      <trkpt lat="60.0219348857" lon="23.5300270004">
        <ele>49.4</ele>
        <time>2012-02-21T19:19:31Z</time>
      </trkpt>
      <trkpt lat="60.021935221" lon="23.5300024414">
        <ele>49.2</ele>
        <time>2012-02-21T19:19:32Z</time>
      </trkpt>
      <trkpt lat="60.0219358915" lon="23.5297957438">
        <ele>48.2</ele>
        <time>2012-02-21T19:19:39Z</time>
      </trkpt>
      <trkpt lat="60.0219754541" lon="23.5295494836">
        <ele>47.4</ele>
        <time>2012-02-21T19:19:45Z</time>
      </trkpt>
      <trkpt lat="60.0220239015" lon="23.5293032233">
        <ele>47</ele>
        <time>2012-02-21T19:19:50Z</time>
      </trkpt>
      <trkpt lat="60.022064386" lon="23.5290933406">
        <ele>46</ele>
        <time>2012-02-21T19:19:55Z</time>
      </trkpt>
      <trkpt lat="60.0220691637" lon="23.5290558735">
        <ele>46</ele>
        <time>2012-02-21T19:19:56Z</time>
      </trkpt>
      <trkpt lat="60.0221002606" lon="23.5288936837">
        <ele>45.2</ele>
        <time>2012-02-21T19:20:01Z</time>
      </trkpt>
      <trkpt lat="60.0221033619" lon="23.5288752435">
        <ele>45.2</ele>
        <time>2012-02-21T19:20:02Z</time>
      </trkpt>
      <trkpt lat="60.0221271665" lon="23.5288925102">
        <ele>44</ele>
        <time>2012-02-21T19:20:13Z</time>
      </trkpt>
      <trkpt lat="60.0220994224" lon="23.5291684424">
        <ele>43.4</ele>
        <time>2012-02-21T19:20:18Z</time>
      </trkpt>
      <trkpt lat="60.0220345465" lon="23.5295757189">
        <ele>43</ele>
        <time>2012-02-21T19:20:24Z</time>
      </trkpt>
      <trkpt lat="60.0220106581" lon="23.5299221428">
        <ele>42.6</ele>
        <time>2012-02-21T19:20:29Z</time>
      </trkpt>
      <trkpt lat="60.0220478737" lon="23.5303353705">
        <ele>42.6</ele>
        <time>2012-02-21T19:20:35Z</time>
      </trkpt>
      <trkpt lat="60.022119036" lon="23.5306600015">
        <ele>42.6</ele>
        <time>2012-02-21T19:20:40Z</time>
      </trkpt>
      <trkpt lat="60.0222057049" lon="23.5309930144">
        <ele>42.4</ele>
        <time>2012-02-21T19:20:46Z</time>
      </trkpt>
      <trkpt lat="60.0222200379" lon="23.5313434616">
        <ele>42.4</ele>
        <time>2012-02-21T19:20:50Z</time>
      </trkpt>
      <trkpt lat="60.0221969039" lon="23.5316497362">
        <ele>42.4</ele>
        <time>2012-02-21T19:20:54Z</time>
      </trkpt>
      <trkpt lat="60.0221576766" lon="23.5319587769">
        <ele>42.4</ele>
        <time>2012-02-21T19:20:59Z</time>
      </trkpt>
      <trkpt lat="60.0221128334" lon="23.5322228067">
        <ele>43.2</ele>
        <time>2012-02-21T19:21:03Z</time>
      </trkpt>
      <trkpt lat="60.0220671521" lon="23.532583899">
        <ele>43.8</ele>
        <time>2012-02-21T19:21:08Z</time>
      </trkpt>
      <trkpt lat="60.0220443533" lon="23.5329761719">
        <ele>44</ele>
        <time>2012-02-21T19:21:13Z</time>
      </trkpt>
      <trkpt lat="60.0220126697" lon="23.5333643377">
        <ele>44.2</ele>
        <time>2012-02-21T19:21:18Z</time>
      </trkpt>
      <trkpt lat="60.0219826625" lon="23.5335940856">
        <ele>44.4</ele>
        <time>2012-02-21T19:21:21Z</time>
      </trkpt>
      <trkpt lat="60.0219585227" lon="23.5340612927">
        <ele>45.4</ele>
        <time>2012-02-21T19:21:27Z</time>
      </trkpt>
      <trkpt lat="60.0219586065" lon="23.5342897833">
        <ele>45.6</ele>
        <time>2012-02-21T19:21:30Z</time>
      </trkpt>
      <trkpt lat="60.0219692515" lon="23.5346662982">
        <ele>46</ele>
        <time>2012-02-21T19:21:35Z</time>
      </trkpt>
      <trkpt lat="60.0219886975" lon="23.5354119521">
        <ele>47.2</ele>
        <time>2012-02-21T19:21:44Z</time>
      </trkpt>
      <trkpt lat="60.0219917988" lon="23.5354938432">
        <ele>47.2</ele>
        <time>2012-02-21T19:21:45Z</time>
      </trkpt>
      <trkpt lat="60.0219854286" lon="23.5357399358">
        <ele>47.6</ele>
        <time>2012-02-21T19:21:48Z</time>
      </trkpt>
      <trkpt lat="60.0219275096" lon="23.5361102481">
        <ele>48.8</ele>
        <time>2012-02-21T19:21:53Z</time>
      </trkpt>
      <trkpt lat="60.0218493065" lon="23.5365616135">
        <ele>49.8</ele>
        <time>2012-02-21T19:21:59Z</time>
      </trkpt>
      <trkpt lat="60.021765739" lon="23.5369577421">
        <ele>51.2</ele>
        <time>2012-02-21T19:22:05Z</time>
      </trkpt>
      <trkpt lat="60.0216873682" lon="23.5373374421">
        <ele>52.8</ele>
        <time>2012-02-21T19:22:11Z</time>
      </trkpt>
      <trkpt lat="60.0216149486" lon="23.5375988736">
        <ele>53.6</ele>
        <time>2012-02-21T19:22:15Z</time>
      </trkpt>
      <trkpt lat="60.0215213227" lon="23.5378657533">
        <ele>54.8</ele>
        <time>2012-02-21T19:22:19Z</time>
      </trkpt>
      <trkpt lat="60.0213908166" lon="23.5380401806">
        <ele>55.8</ele>
        <time>2012-02-21T19:22:23Z</time>
      </trkpt>
      <trkpt lat="60.0212245197" lon="23.5381999396">
        <ele>56.8</ele>
        <time>2012-02-21T19:22:28Z</time>
      </trkpt>
      <trkpt lat="60.021196105" lon="23.5382247501">
        <ele>57</ele>
        <time>2012-02-21T19:22:29Z</time>
      </trkpt>
      <trkpt lat="60.021248911" lon="23.5381568567">
        <ele>59.2</ele>
        <time>2012-02-21T19:22:51Z</time>
      </trkpt>
      <trkpt lat="60.0212991186" lon="23.5381171265">
        <ele>60.8</ele>
        <time>2012-02-21T19:23:02Z</time>
      </trkpt>
      <trkpt lat="60.021333652" lon="23.5380694334">
        <ele>61</ele>
        <time>2012-02-21T19:23:04Z</time>
      </trkpt>
      <trkpt lat="60.021428116" lon="23.5379644082">
        <ele>61.2</ele>
        <time>2012-02-21T19:23:08Z</time>
      </trkpt>
      <trkpt lat="60.0215566105" lon="23.5377438805">
        <ele>62.4</ele>
        <time>2012-02-21T19:23:14Z</time>
      </trkpt>
      <trkpt lat="60.0216292816" lon="23.5374508492">
        <ele>63</ele>
        <time>2012-02-21T19:23:20Z</time>
      </trkpt>
      <trkpt lat="60.0216759688" lon="23.5372197602">
        <ele>63.2</ele>
        <time>2012-02-21T19:23:25Z</time>
      </trkpt>
      <trkpt lat="60.0217485561" lon="23.5368797904">
        <ele>63.4</ele>
        <time>2012-02-21T19:23:32Z</time>
      </trkpt>
      <trkpt lat="60.0217990989" lon="23.5366014275">
        <ele>63.6</ele>
        <time>2012-02-21T19:23:38Z</time>
      </trkpt>
      <trkpt lat="60.0218801519" lon="23.5362466217">
        <ele>63.6</ele>
        <time>2012-02-21T19:23:45Z</time>
      </trkpt>
      <trkpt lat="60.02190974" lon="23.5360856892">
        <ele>63</ele>
        <time>2012-02-21T19:23:50Z</time>
      </trkpt>
      <trkpt lat="60.0219605343" lon="23.5358078292">
        <ele>62.2</ele>
        <time>2012-02-21T19:23:59Z</time>
      </trkpt>
      <trkpt lat="60.0219617916" lon="23.5357755589">
        <ele>62</ele>
        <time>2012-02-21T19:24:00Z</time>
      </trkpt>
      <trkpt lat="60.0219607858" lon="23.5356480702">
        <ele>62</ele>
        <time>2012-02-21T19:24:04Z</time>
      </trkpt>
      <trkpt lat="60.0219706764" lon="23.5356038137">
        <ele>61.8</ele>
        <time>2012-02-21T19:24:06Z</time>
      </trkpt>
      <trkpt lat="60.0219653958" lon="23.5355396922">
        <ele>61.4</ele>
        <time>2012-02-21T19:24:08Z</time>
      </trkpt>
      <trkpt lat="60.0219234025" lon="23.5352878161">
        <ele>60.4</ele>
        <time>2012-02-21T19:24:16Z</time>
      </trkpt>
      <trkpt lat="60.0218995979" lon="23.5351333377">
        <ele>60</ele>
        <time>2012-02-21T19:24:21Z</time>
      </trkpt>
      <trkpt lat="60.0218942335" lon="23.5350973793">
        <ele>60</ele>
        <time>2012-02-21T19:24:22Z</time>
      </trkpt>
      <trkpt lat="60.0218894558" lon="23.5349126423">
        <ele>58.8</ele>
        <time>2012-02-21T19:24:28Z</time>
      </trkpt>
      <trkpt lat="60.0218876956" lon="23.5348824674">
        <ele>58.6</ele>
        <time>2012-02-21T19:24:29Z</time>
      </trkpt>
      <trkpt lat="60.0218871927" lon="23.5348543042">
        <ele>58.6</ele>
        <time>2012-02-21T19:24:30Z</time>
      </trkpt>
      <trkpt lat="60.0218738655" lon="23.5346896837">
        <ele>58.2</ele>
        <time>2012-02-21T19:24:35Z</time>
      </trkpt>
      <trkpt lat="60.0218727758" lon="23.5346612691">
        <ele>58</ele>
        <time>2012-02-21T19:24:36Z</time>
      </trkpt>
      <trkpt lat="60.0218551738" lon="23.5344035257">
        <ele>57.8</ele>
        <time>2012-02-21T19:24:44Z</time>
      </trkpt>
      <trkpt lat="60.0218561797" lon="23.5342114963">
        <ele>57.6</ele>
        <time>2012-02-21T19:24:50Z</time>
      </trkpt>
      <trkpt lat="60.0218583589" lon="23.5341826626">
        <ele>57.6</ele>
        <time>2012-02-21T19:24:51Z</time>
      </trkpt>
      <trkpt lat="60.0218516534" lon="23.5340227359">
        <ele>57.6</ele>
        <time>2012-02-21T19:24:56Z</time>
      </trkpt>
      <trkpt lat="60.0218525754" lon="23.5339967521">
        <ele>57.6</ele>
        <time>2012-02-21T19:24:57Z</time>
      </trkpt>
      <trkpt lat="60.0218770506" lon="23.5338783996">
        <ele>57.2</ele>
        <time>2012-02-21T19:25:02Z</time>
      </trkpt>
      <trkpt lat="60.0218746198" lon="23.5337065707">
        <ele>56.2</ele>
        <time>2012-02-21T19:25:09Z</time>
      </trkpt>
      <trkpt lat="60.0218753742" lon="23.5335367534">
        <ele>55.8</ele>
        <time>2012-02-21T19:25:15Z</time>
      </trkpt>
      <trkpt lat="60.0218757933" lon="23.5334764037">
        <ele>55.8</ele>
        <time>2012-02-21T19:25:17Z</time>
      </trkpt>
      <trkpt lat="60.0218866059" lon="23.533389651">
        <ele>55.8</ele>
        <time>2012-02-21T19:25:20Z</time>
      </trkpt>
      <trkpt lat="60.0219006037" lon="23.5332163133">
        <ele>55.6</ele>
        <time>2012-02-21T19:25:26Z</time>
      </trkpt>
      <trkpt lat="60.0219031183" lon="23.5330677861">
        <ele>54.8</ele>
        <time>2012-02-21T19:25:31Z</time>
      </trkpt>
      <trkpt lat="60.0219170322" lon="23.5327617629">
        <ele>54.2</ele>
        <time>2012-02-21T19:25:38Z</time>
      </trkpt>
      <trkpt lat="60.021919463" lon="23.5327231224">
        <ele>54</ele>
        <time>2012-02-21T19:25:39Z</time>
      </trkpt>
      <trkpt lat="60.0219442734" lon="23.5324254811">
        <ele>53.8</ele>
        <time>2012-02-21T19:25:45Z</time>
      </trkpt>
      <trkpt lat="60.0219964927" lon="23.5321288456">
        <ele>53.6</ele>
        <time>2012-02-21T19:25:51Z</time>
      </trkpt>
      <trkpt lat="60.0220489634" lon="23.5318921408">
        <ele>53.2</ele>
        <time>2012-02-21T19:25:56Z</time>
      </trkpt>
      <trkpt lat="60.0221109056" lon="23.5316445395">
        <ele>52.4</ele>
        <time>2012-02-21T19:26:01Z</time>
      </trkpt>
      <trkpt lat="60.022169076" lon="23.5313747261">
        <ele>52</ele>
        <time>2012-02-21T19:26:06Z</time>
      </trkpt>
      <trkpt lat="60.0221829899" lon="23.5310803538">
        <ele>51.8</ele>
        <time>2012-02-21T19:26:11Z</time>
      </trkpt>
      <trkpt lat="60.0221783799" lon="23.5309744066">
        <ele>51.6</ele>
        <time>2012-02-21T19:26:13Z</time>
      </trkpt>
      <trkpt lat="60.0221254901" lon="23.5307890827">
        <ele>51.6</ele>
        <time>2012-02-21T19:26:17Z</time>
      </trkpt>
      <trkpt lat="60.0220107419" lon="23.5304874182">
        <ele>51.4</ele>
        <time>2012-02-21T19:26:23Z</time>
      </trkpt>
      <trkpt lat="60.0219602829" lon="23.5303274915">
        <ele>51.4</ele>
        <time>2012-02-21T19:26:27Z</time>
      </trkpt>
      <trkpt lat="60.0219492187" lon="23.5302785412">
        <ele>51.4</ele>
        <time>2012-02-21T19:26:28Z</time>
      </trkpt>
      <trkpt lat="60.0219239054" lon="23.5299658125">
        <ele>51.2</ele>
        <time>2012-02-21T19:26:35Z</time>
      </trkpt>
      <trkpt lat="60.0219116678" lon="23.5298635533">
        <ele>50.8</ele>
        <time>2012-02-21T19:26:37Z</time>
      </trkpt>
      <trkpt lat="60.0219404177" lon="23.5295300375">
        <ele>49.6</ele>
        <time>2012-02-21T19:26:44Z</time>
      </trkpt>
      <trkpt lat="60.0220064671" lon="23.5292127826">
        <ele>48</ele>
        <time>2012-02-21T19:26:51Z</time>
      </trkpt>
      <trkpt lat="60.022065811" lon="23.528963002">
        <ele>46.8</ele>
        <time>2012-02-21T19:26:56Z</time>
      </trkpt>
      <trkpt lat="60.0221157671" lon="23.5287242017">
        <ele>45.8</ele>
        <time>2012-02-21T19:27:01Z</time>
      </trkpt>
      <trkpt lat="60.0221145098" lon="23.5287339247">
        <ele>45</ele>
        <time>2012-02-21T19:27:04Z</time>
      </trkpt>
      <trkpt lat="60.0221143422" lon="23.5287543765">
        <ele>44.8</ele>
        <time>2012-02-21T19:27:05Z</time>
      </trkpt>
      <trkpt lat="60.0221098159" lon="23.5288058414">
        <ele>44</ele>
        <time>2012-02-21T19:27:10Z</time>
      </trkpt>
      <trkpt lat="60.0221068823" lon="23.5287987168">
        <ele>43.8</ele>
        <time>2012-02-21T19:27:11Z</time>
      </trkpt>
      <trkpt lat="60.0221054574" lon="23.528868538">
        <ele>43.4</ele>
        <time>2012-02-21T19:27:15Z</time>
      </trkpt>
      <trkpt lat="60.0220953991" lon="23.5291282931">
        <ele>43.2</ele>
        <time>2012-02-21T19:27:18Z</time>
      </trkpt>
      <trkpt lat="60.0220453591" lon="23.529523332">
        <ele>43</ele>
        <time>2012-02-21T19:27:23Z</time>
      </trkpt>
      <trkpt lat="60.0220168607" lon="23.5299006852">
        <ele>43</ele>
        <time>2012-02-21T19:27:28Z</time>
      </trkpt>
      <trkpt lat="60.0220261646" lon="23.5301768688">
        <ele>43</ele>
        <time>2012-02-21T19:27:32Z</time>
      </trkpt>
      <trkpt lat="60.0220808984" lon="23.5305498633">
        <ele>42.8</ele>
        <time>2012-02-21T19:27:37Z</time>
      </trkpt>
      <trkpt lat="60.0221665614" lon="23.5307823772">
        <ele>42.8</ele>
        <time>2012-02-21T19:27:41Z</time>
      </trkpt>
      <trkpt lat="60.0222391487" lon="23.5311145519">
        <ele>42.8</ele>
        <time>2012-02-21T19:27:45Z</time>
      </trkpt>
      <trkpt lat="60.022245016" lon="23.5311982871">
        <ele>42.8</ele>
        <time>2012-02-21T19:27:46Z</time>
      </trkpt>
      <trkpt lat="60.0222059563" lon="23.5317005306">
        <ele>42.8</ele>
        <time>2012-02-21T19:27:52Z</time>
      </trkpt>
      <trkpt lat="60.0221990832" lon="23.5317644844">
        <ele>42.8</ele>
        <time>2012-02-21T19:27:53Z</time>
      </trkpt>
      <trkpt lat="60.0221501329" lon="23.5321060469">
        <ele>42.8</ele>
        <time>2012-02-21T19:27:58Z</time>
      </trkpt>
      <trkpt lat="60.0221088101" lon="23.5323951386">
        <ele>42.8</ele>
        <time>2012-02-21T19:28:02Z</time>
      </trkpt>
      <trkpt lat="60.0220720974" lon="23.532778862">
        <ele>42.8</ele>
        <time>2012-02-21T19:28:07Z</time>
      </trkpt>
      <trkpt lat="60.0220404976" lon="23.5332083505">
        <ele>42.8</ele>
        <time>2012-02-21T19:28:12Z</time>
      </trkpt>
      <trkpt lat="60.0220372287" lon="23.5332939297">
        <ele>42.8</ele>
        <time>2012-02-21T19:28:13Z</time>
      </trkpt>
      <trkpt lat="60.0220285953" lon="23.5336377553">
        <ele>43.4</ele>
        <time>2012-02-21T19:28:17Z</time>
      </trkpt>
      <trkpt lat="60.0220290144" lon="23.5337216581">
        <ele>43.6</ele>
        <time>2012-02-21T19:28:18Z</time>
      </trkpt>
      <trkpt lat="60.0220151005" lon="23.5339607937">
        <ele>43.8</ele>
        <time>2012-02-21T19:28:21Z</time>
      </trkpt>
      <trkpt lat="60.0220089817" lon="23.5343572576">
        <ele>44.4</ele>
        <time>2012-02-21T19:28:26Z</time>
      </trkpt>
      <trkpt lat="60.0220110772" lon="23.534870649">
        <ele>45.6</ele>
        <time>2012-02-21T19:28:32Z</time>
      </trkpt>
      <trkpt lat="60.0220106581" lon="23.5350396281">
        <ele>45.8</ele>
        <time>2012-02-21T19:28:34Z</time>
      </trkpt>
      <trkpt lat="60.0219640547" lon="23.5361571868">
        <ele>48.2</ele>
        <time>2012-02-21T19:28:47Z</time>
      </trkpt>
      <trkpt lat="60.021946788" lon="23.5362320371">
        <ele>48.2</ele>
        <time>2012-02-21T19:28:48Z</time>
      </trkpt>
      <trkpt lat="60.021933796" lon="23.5362863519">
        <ele>48.6</ele>
        <time>2012-02-21T19:28:49Z</time>
      </trkpt>
      <trkpt lat="60.021897251" lon="23.5364547442">
        <ele>49</ele>
        <time>2012-02-21T19:28:51Z</time>
      </trkpt>
      <trkpt lat="60.0218142702" lon="23.5367982345">
        <ele>50</ele>
        <time>2012-02-21T19:28:56Z</time>
      </trkpt>
      <trkpt lat="60.0217730312" lon="23.5370058542">
        <ele>50.6</ele>
        <time>2012-02-21T19:28:59Z</time>
      </trkpt>
      <trkpt lat="60.0217582791" lon="23.5370852307">
        <ele>50.8</ele>
        <time>2012-02-21T19:29:00Z</time>
      </trkpt>
      <trkpt lat="60.0216817523" lon="23.5373747416">
        <ele>51.8</ele>
        <time>2012-02-21T19:29:04Z</time>
      </trkpt>
      <trkpt lat="60.0216417706" lon="23.537531986">
        <ele>52.2</ele>
        <time>2012-02-21T19:29:06Z</time>
      </trkpt>
      <trkpt lat="60.0215280283" lon="23.537893665">
        <ele>53.6</ele>
        <time>2012-02-21T19:29:11Z</time>
      </trkpt>
      <trkpt lat="60.0214987754" lon="23.5379452137">
        <ele>54</ele>
        <time>2012-02-21T19:29:12Z</time>
      </trkpt>
      <trkpt lat="60.0213380106" lon="23.5381348123">
        <ele>55.2</ele>
        <time>2012-02-21T19:29:17Z</time>
      </trkpt>
      <trkpt lat="60.0211723004" lon="23.5383064736">
        <ele>56.6</ele>
        <time>2012-02-21T19:29:23Z</time>
      </trkpt>
      <trkpt lat="60.0211731386" lon="23.5383150231">
        <ele>56.6</ele>
        <time>2012-02-21T19:29:24Z</time>
      </trkpt>
      <trkpt lat="60.0212053251" lon="23.5383064736">
        <ele>57.2</ele>
        <time>2012-02-21T19:29:29Z</time>
      </trkpt>
      <trkpt lat="60.021210019" lon="23.5382959962">
        <ele>57.6</ele>
        <time>2012-02-21T19:29:36Z</time>
      </trkpt>
      <trkpt lat="60.0211717975" lon="23.5382507339">
        <ele>59.8</ele>
        <time>2012-02-21T19:30:10Z</time>
      </trkpt>
      <trkpt lat="60.0211987034" lon="23.5382284381">
        <ele>61.2</ele>
        <time>2012-02-21T19:30:26Z</time>
      </trkpt>
      <trkpt lat="60.0212194905" lon="23.5381901328">
        <ele>61.6</ele>
        <time>2012-02-21T19:30:31Z</time>
      </trkpt>
      <trkpt lat="60.0212690276" lon="23.5381357343">
        <ele>62.8</ele>
        <time>2012-02-21T19:30:38Z</time>
      </trkpt>
      <trkpt lat="60.0212792535" lon="23.53812752">
        <ele>63.2</ele>
        <time>2012-02-21T19:30:44Z</time>
      </trkpt>
      <trkpt lat="60.0212409482" lon="23.5381792363">
        <ele>63.8</ele>
        <time>2012-02-21T19:30:50Z</time>
      </trkpt>
      <trkpt lat="60.0211710431" lon="23.5382312879">
        <ele>63.8</ele>
        <time>2012-02-21T19:30:56Z</time>
      </trkpt>
      <trkpt lat="60.0211579674" lon="23.5382539191">
        <ele>64</ele>
        <time>2012-02-21T19:31:02Z</time>
      </trkpt>
      <trkpt lat="60.0211012219" lon="23.5383094911">
        <ele>64</ele>
        <time>2012-02-21T19:31:07Z</time>
      </trkpt>
      <trkpt lat="60.0210420457" lon="23.5383805696">
        <ele>64</ele>
        <time>2012-02-21T19:31:13Z</time>
      </trkpt>
      <trkpt lat="60.0210316521" lon="23.5383949026">
        <ele>64</ele>
        <time>2012-02-21T19:31:14Z</time>
      </trkpt>
      <trkpt lat="60.0210234379" lon="23.5384168632">
        <ele>64</ele>
        <time>2012-02-21T19:31:16Z</time>
      </trkpt>
      <trkpt lat="60.0209913352" lon="23.5384648077">
        <ele>64</ele>
        <time>2012-02-21T19:31:19Z</time>
      </trkpt>
      <trkpt lat="60.0209250344" lon="23.5385349642">
        <ele>64</ele>
        <time>2012-02-21T19:31:25Z</time>
      </trkpt>
      <trkpt lat="60.0208280558" lon="23.5386394865">
        <ele>64</ele>
        <time>2012-02-21T19:31:31Z</time>
      </trkpt>
      <trkpt lat="60.0208114596" lon="23.5386598545">
        <ele>64</ele>
        <time>2012-02-21T19:31:32Z</time>
      </trkpt>
      <trkpt lat="60.0208029939" lon="23.5386816474">
        <ele>64</ele>
        <time>2012-02-21T19:31:33Z</time>
      </trkpt>
      <trkpt lat="60.0207329212" lon="23.5387726749">
        <ele>64</ele>
        <time>2012-02-21T19:31:37Z</time>
      </trkpt>
      <trkpt lat="60.0207049257" lon="23.5387923723">
        <ele>64</ele>
        <time>2012-02-21T19:31:38Z</time>
      </trkpt>
      <trkpt lat="60.0205226194" lon="23.538931428">
        <ele>63.8</ele>
        <time>2012-02-21T19:31:46Z</time>
      </trkpt>
      <trkpt lat="60.0203967232" lon="23.5390268141">
        <ele>63</ele>
        <time>2012-02-21T19:31:51Z</time>
      </trkpt>
      <trkpt lat="60.0202955537" lon="23.5391343538">
        <ele>62.6</ele>
        <time>2012-02-21T19:31:55Z</time>
      </trkpt>
      <trkpt lat="60.0201854155" lon="23.5392751698">
        <ele>61.8</ele>
        <time>2012-02-21T19:32:00Z</time>
      </trkpt>
      <trkpt lat="60.0201616109" lon="23.539305177">
        <ele>61.6</ele>
        <time>2012-02-21T19:32:01Z</time>
      </trkpt>
      <trkpt lat="60.0200596032" lon="23.5393815361">
        <ele>61</ele>
        <time>2012-02-21T19:32:05Z</time>
      </trkpt>
      <trkpt lat="60.0198691664" lon="23.5395745712">
        <ele>60</ele>
        <time>2012-02-21T19:32:12Z</time>
      </trkpt>
      <trkpt lat="60.0197308651" lon="23.5397511779">
        <ele>59</ele>
        <time>2012-02-21T19:32:18Z</time>
      </trkpt>
      <trkpt lat="60.01967764" lon="23.5398518445">
        <ele>58.6</ele>
        <time>2012-02-21T19:32:21Z</time>
      </trkpt>
      <trkpt lat="60.0195748779" lon="23.5400188957">
        <ele>57.8</ele>
        <time>2012-02-21T19:32:26Z</time>
      </trkpt>
      <trkpt lat="60.0194566093" lon="23.5401596279">
        <ele>57</ele>
        <time>2012-02-21T19:32:31Z</time>
      </trkpt>
      <trkpt lat="60.0193027176" lon="23.5403707679">
        <ele>56</ele>
        <time>2012-02-21T19:32:38Z</time>
      </trkpt>
      <trkpt lat="60.0192003746" lon="23.5405392441">
        <ele>55</ele>
        <time>2012-02-21T19:32:43Z</time>
      </trkpt>
      <trkpt lat="60.0191317269" lon="23.5406346301">
        <ele>54.8</ele>
        <time>2012-02-21T19:32:46Z</time>
      </trkpt>
      <trkpt lat="60.0190107761" lon="23.5409357918">
        <ele>54.2</ele>
        <time>2012-02-21T19:32:53Z</time>
      </trkpt>
      <trkpt lat="60.0189297231" lon="23.5411980614">
        <ele>54</ele>
        <time>2012-02-21T19:32:59Z</time>
      </trkpt>
      <trkpt lat="60.0188776715" lon="23.5413610056">
        <ele>53.8</ele>
        <time>2012-02-21T19:33:03Z</time>
      </trkpt>
      <trkpt lat="60.0187873984" lon="23.5416221018">
        <ele>53.8</ele>
        <time>2012-02-21T19:33:09Z</time>
      </trkpt>
      <trkpt lat="60.0186760868" lon="23.5418916637">
        <ele>54</ele>
        <time>2012-02-21T19:33:16Z</time>
      </trkpt>
      <trkpt lat="60.0185689661" lon="23.5421094254">
        <ele>54.8</ele>
        <time>2012-02-21T19:33:22Z</time>
      </trkpt>
      <trkpt lat="60.0184600852" lon="23.5422717828">
        <ele>55.2</ele>
        <time>2012-02-21T19:33:28Z</time>
      </trkpt>
      <trkpt lat="60.0184366997" lon="23.5423029635">
        <ele>55.4</ele>
        <time>2012-02-21T19:33:32Z</time>
      </trkpt>
      <trkpt lat="60.0184568163" lon="23.5422861997">
        <ele>55.4</ele>
        <time>2012-02-21T19:33:35Z</time>
      </trkpt>
      <trkpt lat="60.0185568962" lon="23.542126273">
        <ele>55.6</ele>
        <time>2012-02-21T19:33:44Z</time>
      </trkpt>
      <trkpt lat="60.0186585686" lon="23.5419339084">
        <ele>55.6</ele>
        <time>2012-02-21T19:33:55Z</time>
      </trkpt>
      <trkpt lat="60.0186715606" lon="23.5419096009">
        <ele>55.6</ele>
        <time>2012-02-21T19:33:57Z</time>
      </trkpt>
      <trkpt lat="60.0187229416" lon="23.5417464053">
        <ele>55.6</ele>
        <time>2012-02-21T19:34:03Z</time>
      </trkpt>
      <trkpt lat="60.0187660246" lon="23.5415960341">
        <ele>55.6</ele>
        <time>2012-02-21T19:34:07Z</time>
      </trkpt>
      <trkpt lat="60.0188597342" lon="23.5413541324">
        <ele>55.6</ele>
        <time>2012-02-21T19:34:13Z</time>
      </trkpt>
      <trkpt lat="60.0189304775" lon="23.5411354486">
        <ele>55.6</ele>
        <time>2012-02-21T19:34:18Z</time>
      </trkpt>
      <trkpt lat="60.0189946828" lon="23.540949119">
        <ele>55.6</ele>
        <time>2012-02-21T19:34:23Z</time>
      </trkpt>
      <trkpt lat="60.0190693655" lon="23.5407631247">
        <ele>55.6</ele>
        <time>2012-02-21T19:34:28Z</time>
      </trkpt>
      <trkpt lat="60.019149748" lon="23.5405973307">
        <ele>55.6</ele>
        <time>2012-02-21T19:34:33Z</time>
      </trkpt>
      <trkpt lat="60.0192531806" lon="23.5403760485">
        <ele>55.8</ele>
        <time>2012-02-21T19:34:39Z</time>
      </trkpt>
      <trkpt lat="60.019335407" lon="23.5402408485">
        <ele>56.6</ele>
        <time>2012-02-21T19:34:43Z</time>
      </trkpt>
      <trkpt lat="60.019429452" lon="23.5400807542">
        <ele>57</ele>
        <time>2012-02-21T19:34:48Z</time>
      </trkpt>
      <trkpt lat="60.0195421047" lon="23.5398981126">
        <ele>57.8</ele>
        <time>2012-02-21T19:34:54Z</time>
      </trkpt>
      <trkpt lat="60.0196270972" lon="23.5397700371">
        <ele>58.6</ele>
        <time>2012-02-21T19:34:59Z</time>
      </trkpt>
      <trkpt lat="60.0197035401" lon="23.5396345856">
        <ele>59.2</ele>
        <time>2012-02-21T19:35:04Z</time>
      </trkpt>
      <trkpt lat="60.0197987585" lon="23.5395230225">
        <ele>59.4</ele>
        <time>2012-02-21T19:35:09Z</time>
      </trkpt>
      <trkpt lat="60.0199066335" lon="23.5393834639">
        <ele>59.6</ele>
        <time>2012-02-21T19:35:15Z</time>
      </trkpt>
      <trkpt lat="60.0200083898" lon="23.539245414">
        <ele>59.8</ele>
        <time>2012-02-21T19:35:20Z</time>
      </trkpt>
      <trkpt lat="60.0201174383" lon="23.5391326775">
        <ele>59.8</ele>
        <time>2012-02-21T19:35:25Z</time>
      </trkpt>
      <trkpt lat="60.0202279956" lon="23.5390128163">
        <ele>59.8</ele>
        <time>2012-02-21T19:35:30Z</time>
      </trkpt>
      <trkpt lat="60.0203374632" lon="23.53890645">
        <ele>60.2</ele>
        <time>2012-02-21T19:35:35Z</time>
      </trkpt>
      <trkpt lat="60.02039731" lon="23.5388414064">
        <ele>60.6</ele>
        <time>2012-02-21T19:35:38Z</time>
      </trkpt>
      <trkpt lat="60.0206337634" lon="23.5386325295">
        <ele>61.6</ele>
        <time>2012-02-21T19:35:50Z</time>
      </trkpt>
      <trkpt lat="60.0207385371" lon="23.5385317791">
        <ele>61.6</ele>
        <time>2012-02-21T19:35:55Z</time>
      </trkpt>
      <trkpt lat="60.0208526986" lon="23.5384170308">
        <ele>61.8</ele>
        <time>2012-02-21T19:36:00Z</time>
      </trkpt>
      <trkpt lat="60.0209645969" lon="23.5382881172">
        <ele>61.8</ele>
        <time>2012-02-21T19:36:06Z</time>
      </trkpt>
      <trkpt lat="60.0210787584" lon="23.5381799069">
        <ele>61.8</ele>
        <time>2012-02-21T19:36:11Z</time>
      </trkpt>
      <trkpt lat="60.0211894833" lon="23.5380369955">
        <ele>61.8</ele>
        <time>2012-02-21T19:36:16Z</time>
      </trkpt>
      <trkpt lat="60.0213106018" lon="23.5378884682">
        <ele>61.8</ele>
        <time>2012-02-21T19:36:21Z</time>
      </trkpt>
      <trkpt lat="60.0214132801" lon="23.5377650028">
        <ele>61.8</ele>
        <time>2012-02-21T19:36:26Z</time>
      </trkpt>
      <trkpt lat="60.0214652478" lon="23.5376481592">
        <ele>61.8</ele>
        <time>2012-02-21T19:36:34Z</time>
      </trkpt>
      <trkpt lat="60.0214797485" lon="23.537604238">
        <ele>61.8</ele>
        <time>2012-02-21T19:36:37Z</time>
      </trkpt>
    </trkseg>
  </trk>
</gpx>